RESCUE1 BGSF-BGSF
Flight info
| Callsign | RESCUE1 |
|---|---|
| Flight time | 0h 4m |
| Altitude | 3500 |
| Route | VFR |
| Aircraft | EC25/M-VGD/C |
Departure
| Time | 2026-04-23 08:18 |
|---|---|
| Airport | Kangerlussuaq International Airport (BGSF) |
Arrival
| Time | 2026-04-23 08:22 |
|---|---|
| Airport | Kangerlussuaq International Airport (BGSF) |
| Time | Latitude | Longitude | Altitude | Speed | Heading |
|---|---|---|---|---|---|
| 2026-04-23 07:59 | 67.01789 | -50.69556 | 162 ft | 0 kts | 76° |
| 2026-04-23 08:09 | 67.01789 | -50.69555 | 162 ft | 0 kts | 76° |
| 2026-04-23 08:10 | 67.01791 | -50.69537 | 162 ft | 2 kts | 72° |
| 2026-04-23 08:10 | 67.01799 | -50.69484 | 163 ft | 4 kts | 68° |
| 2026-04-23 08:10 | 67.01814 | -50.69348 | 163 ft | 3 kts | 122° |
| 2026-04-23 08:11 | 67.01798 | -50.69322 | 163 ft | 3 kts | 153° |
| 2026-04-23 08:11 | 67.01774 | -50.69290 | 162 ft | 5 kts | 149° |
| 2026-04-23 08:11 | 67.01760 | -50.69270 | 162 ft | 0 kts | 151° |
| 2026-04-23 08:11 | 67.01757 | -50.69266 | 162 ft | 0 kts | 149° |
| 2026-04-23 08:14 | 67.01750 | -50.69256 | 162 ft | 3 kts | 149° |
| 2026-04-23 08:15 | 67.01713 | -50.69200 | 163 ft | 9 kts | 149° |
| 2026-04-23 08:15 | 67.01652 | -50.69164 | 164 ft | 9 kts | 213° |
| 2026-04-23 08:15 | 67.01618 | -50.69305 | 165 ft | 11 kts | 243° |
| 2026-04-23 08:15 | 67.01567 | -50.69547 | 199 ft | 21 kts | 230° |
| 2026-04-23 08:16 | 67.01465 | -50.70078 | 243 ft | 52 kts | 242° |
| 2026-04-23 08:16 | 67.01233 | -50.71102 | 263 ft | 77 kts | 232° |
| 2026-04-23 08:16 | 67.00963 | -50.72411 | 307 ft | 88 kts | 236° |
| 2026-04-23 08:16 | 67.00660 | -50.73845 | 347 ft | 93 kts | 235° |
| 2026-04-23 08:17 | 67.00370 | -50.75116 | 393 ft | 71 kts | 234° |
| 2026-04-23 08:17 | 67.00190 | -50.76098 | 529 ft | 52 kts | 236° |
| 2026-04-23 08:17 | 67.00029 | -50.76776 | 692 ft | 40 kts | 223° |
| 2026-04-23 08:17 | 66.99772 | -50.76694 | 798 ft | 44 kts | 148° |
| 2026-04-23 08:18 | 66.99490 | -50.76245 | 855 ft | 51 kts | 142° |
| 2026-04-23 08:18 | 66.99168 | -50.75748 | 935 ft | 56 kts | 141° |
| 2026-04-23 08:18 | 66.98924 | -50.75011 | 1062 ft | 56 kts | 92° |
| 2026-04-23 08:18 | 66.98960 | -50.73939 | 1167 ft | 69 kts | 63° |
| 2026-04-23 08:19 | 66.99070 | -50.72567 | 1159 ft | 86 kts | 64° |
| 2026-04-23 08:19 | 66.99213 | -50.70985 | 1163 ft | 95 kts | 65° |
| 2026-04-23 08:19 | 66.99372 | -50.69284 | 1165 ft | 101 kts | 65° |
| 2026-04-23 08:19 | 66.99552 | -50.67517 | 1186 ft | 104 kts | 64° |
| 2026-04-23 08:20 | 66.99759 | -50.65725 | 1229 ft | 105 kts | 62° |
| 2026-04-23 08:20 | 67.00140 | -50.64217 | 1277 ft | 99 kts | 27° |
| 2026-04-23 08:20 | 67.00764 | -50.63684 | 1125 ft | 93 kts | 354° |
| 2026-04-23 08:20 | 67.01366 | -50.63905 | 945 ft | 84 kts | 333° |
| 2026-04-23 08:21 | 67.01876 | -50.64506 | 787 ft | 78 kts | 320° |
| 2026-04-23 08:21 | 67.02219 | -50.65452 | 621 ft | 70 kts | 285° |
| 2026-04-23 08:21 | 67.02190 | -50.66579 | 470 ft | 61 kts | 241° |
| 2026-04-23 08:21 | 67.01994 | -50.67448 | 368 ft | 51 kts | 238° |
| 2026-04-23 08:22 | 67.01861 | -50.68116 | 279 ft | 34 kts | 231° |
| 2026-04-23 08:22 | 67.01781 | -50.68525 | 227 ft | 26 kts | 228° |
| 2026-04-23 08:22 | 67.01662 | -50.69077 | 182 ft | 44 kts | 229° |
| 2026-04-23 08:22 | 67.01555 | -50.69621 | 164 ft | 12 kts | 243° |
| 2026-04-23 08:23 | 67.01539 | -50.69685 | 162 ft | 3 kts | 234° |
| 2026-04-23 08:23 | 67.01513 | -50.69815 | 198 ft | 24 kts | 226° |
| 2026-04-23 08:23 | 67.01363 | -50.70509 | 220 ft | 62 kts | 229° |
| 2026-04-23 08:23 | 67.01127 | -50.71658 | 255 ft | 81 kts | 232° |
| 2026-04-23 08:24 | 67.00829 | -50.72951 | 356 ft | 87 kts | 234° |
| 2026-04-23 08:24 | 67.00540 | -50.74340 | 435 ft | 88 kts | 234° |
| 2026-04-23 08:24 | 67.00266 | -50.75634 | 580 ft | 78 kts | 236° |
| 2026-04-23 08:24 | 67.00036 | -50.76798 | 732 ft | 68 kts | 230° |
| 2026-04-23 08:25 | 66.99669 | -50.77090 | 912 ft | 57 kts | 152° |
| 2026-04-23 08:25 | 66.99342 | -50.76443 | 997 ft | 62 kts | 134° |
| 2026-04-23 08:25 | 66.99018 | -50.75759 | 1146 ft | 60 kts | 128° |
| 2026-04-23 08:25 | 66.98829 | -50.74780 | 1253 ft | 65 kts | 92° |
| 2026-04-23 08:26 | 66.98813 | -50.73513 | 1281 ft | 78 kts | 71° |
| 2026-04-23 08:26 | 66.98894 | -50.72065 | 1298 ft | 86 kts | 67° |
| 2026-04-23 08:26 | 66.99001 | -50.70541 | 1376 ft | 86 kts | 65° |
| 2026-04-23 08:26 | 66.99138 | -50.69053 | 1474 ft | 85 kts | 60° |
| 2026-04-23 08:27 | 66.99323 | -50.67619 | 1607 ft | 85 kts | 57° |
| 2026-04-23 08:27 | 66.99529 | -50.66192 | 1766 ft | 86 kts | 57° |
| 2026-04-23 08:27 | 66.99745 | -50.64768 | 1906 ft | 86 kts | 54° |
| 2026-04-23 08:27 | 66.99966 | -50.63355 | 2031 ft | 85 kts | 53° |
| 2026-04-23 08:28 | 67.00199 | -50.61970 | 2163 ft | 83 kts | 48° |
| 2026-04-23 08:28 | 67.00602 | -50.61054 | 2299 ft | 78 kts | 11° |
| 2026-04-23 08:28 | 67.01144 | -50.60799 | 2279 ft | 81 kts | 353° |
| 2026-04-23 08:28 | 67.01716 | -50.60985 | 2174 ft | 84 kts | 337° |
| 2026-04-23 08:29 | 67.02240 | -50.61639 | 1973 ft | 86 kts | 319° |
| 2026-04-23 08:29 | 67.02638 | -50.62759 | 1721 ft | 86 kts | 290° |
| 2026-04-23 08:29 | 67.02668 | -50.64236 | 1405 ft | 84 kts | 252° |
| 2026-04-23 08:29 | 67.02413 | -50.65550 | 1089 ft | 82 kts | 240° |
| 2026-04-23 08:30 | 67.02131 | -50.66796 | 808 ft | 80 kts | 240° |
| 2026-04-23 08:30 | 67.01886 | -50.68064 | 495 ft | 79 kts | 241° |
| 2026-04-23 08:30 | 67.01638 | -50.69291 | 260 ft | 75 kts | 235° |
| 2026-04-23 08:30 | 67.01410 | -50.70318 | 183 ft | 48 kts | 235° |
| 2026-04-23 08:31 | 67.01245 | -50.71066 | 214 ft | 52 kts | 232° |
| 2026-04-23 08:31 | 67.01061 | -50.71892 | 243 ft | 54 kts | 231° |
| 2026-04-23 08:31 | 67.00893 | -50.72744 | 303 ft | 53 kts | 231° |
| 2026-04-23 08:31 | 67.00706 | -50.73566 | 444 ft | 56 kts | 231° |
| 2026-04-23 08:32 | 67.00503 | -50.74486 | 628 ft | 63 kts | 232° |
| 2026-04-23 08:32 | 67.00269 | -50.75508 | 769 ft | 69 kts | 235° |
| 2026-04-23 08:32 | 66.99961 | -50.76434 | 937 ft | 69 kts | 204° |
| 2026-04-23 08:32 | 66.99495 | -50.76287 | 1155 ft | 69 kts | 148° |
| 2026-04-23 08:33 | 66.99077 | -50.75659 | 1338 ft | 70 kts | 142° |
| 2026-04-23 08:33 | 66.98723 | -50.74706 | 1453 ft | 81 kts | 105° |
| 2026-04-23 08:33 | 66.98655 | -50.73189 | 1450 ft | 93 kts | 72° |
| 2026-04-23 08:33 | 66.98812 | -50.71487 | 1385 ft | 103 kts | 64° |
| 2026-04-23 08:34 | 66.99021 | -50.69665 | 1398 ft | 109 kts | 63° |
| 2026-04-23 08:34 | 66.99248 | -50.67804 | 1494 ft | 111 kts | 62° |
| 2026-04-23 08:34 | 66.99487 | -50.65924 | 1644 ft | 111 kts | 63° |
| 2026-04-23 08:34 | 66.99737 | -50.64048 | 1751 ft | 111 kts | 62° |
| 2026-04-23 08:35 | 66.99992 | -50.62184 | 1852 ft | 111 kts | 62° |
| 2026-04-23 08:35 | 67.00251 | -50.60337 | 1974 ft | 110 kts | 60° |
| 2026-04-23 08:35 | 67.00511 | -50.58501 | 2091 ft | 111 kts | 62° |
| 2026-04-23 08:35 | 67.00656 | -50.56567 | 2050 ft | 108 kts | 77° |
| 2026-04-23 08:36 | 67.00700 | -50.54729 | 2041 ft | 98 kts | 78° |
| 2026-04-23 08:36 | 67.00741 | -50.53067 | 2094 ft | 90 kts | 76° |
| 2026-04-23 08:36 | 67.00789 | -50.51530 | 2144 ft | 85 kts | 73° |
| 2026-04-23 08:36 | 67.00860 | -50.50051 | 2152 ft | 83 kts | 69° |
| 2026-04-23 08:37 | 67.00959 | -50.48632 | 2163 ft | 82 kts | 66° |
| 2026-04-23 08:37 | 67.01081 | -50.47211 | 2158 ft | 81 kts | 66° |
| 2026-04-23 08:37 | 67.01153 | -50.45763 | 2145 ft | 82 kts | 72° |
| 2026-04-23 08:37 | 67.01234 | -50.44335 | 2126 ft | 83 kts | 68° |
| 2026-04-23 08:38 | 67.01363 | -50.42898 | 2088 ft | 83 kts | 63° |
| 2026-04-23 08:38 | 67.01538 | -50.41480 | 2055 ft | 84 kts | 58° |
| 2026-04-23 08:38 | 67.01756 | -50.40092 | 1999 ft | 84 kts | 53° |
| 2026-04-23 08:38 | 67.01972 | -50.38748 | 2014 ft | 80 kts | 58° |
| 2026-04-23 08:39 | 67.02143 | -50.37409 | 1993 ft | 78 kts | 63° |
| 2026-04-23 08:39 | 67.02269 | -50.36069 | 1998 ft | 77 kts | 68° |
| 2026-04-23 08:39 | 67.02350 | -50.34732 | 1996 ft | 75 kts | 72° |
| 2026-04-23 08:39 | 67.02389 | -50.33402 | 1994 ft | 75 kts | 77° |
| 2026-04-23 08:40 | 67.02396 | -50.32078 | 1973 ft | 74 kts | 78° |
| 2026-04-23 08:40 | 67.02414 | -50.30763 | 1972 ft | 73 kts | 73° |
| 2026-04-23 08:40 | 67.02472 | -50.29470 | 1991 ft | 74 kts | 72° |
| 2026-04-23 08:40 | 67.02538 | -50.28171 | 2024 ft | 71 kts | 69° |
| 2026-04-23 08:41 | 67.02634 | -50.26979 | 2101 ft | 66 kts | 64° |
| 2026-04-23 08:41 | 67.02763 | -50.25891 | 2166 ft | 62 kts | 58° |
| 2026-04-23 08:41 | 67.02923 | -50.24844 | 2190 ft | 64 kts | 57° |
| 2026-04-23 08:41 | 67.03089 | -50.23757 | 2210 ft | 66 kts | 58° |
| 2026-04-23 08:42 | 67.03250 | -50.22634 | 2232 ft | 68 kts | 59° |
| 2026-04-23 08:42 | 67.03412 | -50.21479 | 2328 ft | 73 kts | 58° |
| 2026-04-23 08:42 | 67.03630 | -50.20186 | 2414 ft | 85 kts | 57° |
| 2026-04-23 08:42 | 67.03899 | -50.18761 | 2488 ft | 92 kts | 57° |
| 2026-04-23 08:43 | 67.04205 | -50.17238 | 2505 ft | 100 kts | 56° |
| 2026-04-23 08:43 | 67.04541 | -50.15616 | 2471 ft | 104 kts | 58° |
| 2026-04-23 08:43 | 67.04873 | -50.13982 | 2467 ft | 103 kts | 58° |
| 2026-04-23 08:43 | 67.05206 | -50.12377 | 2460 ft | 101 kts | 57° |
| 2026-04-23 08:44 | 67.05543 | -50.10796 | 2457 ft | 101 kts | 56° |
| 2026-04-23 08:44 | 67.05885 | -50.09235 | 2472 ft | 100 kts | 55° |
| 2026-04-23 08:44 | 67.06232 | -50.07693 | 2468 ft | 100 kts | 54° |
| 2026-04-23 08:44 | 67.06584 | -50.06169 | 2480 ft | 99 kts | 54° |
| 2026-04-23 08:45 | 67.06942 | -50.04662 | 2470 ft | 99 kts | 53° |
| 2026-04-23 08:45 | 67.07306 | -50.03170 | 2480 ft | 99 kts | 53° |
| 2026-04-23 08:45 | 67.07675 | -50.01691 | 2484 ft | 98 kts | 52° |
| 2026-04-23 08:45 | 67.08044 | -50.00251 | 2497 ft | 98 kts | 51° |
| 2026-04-23 08:46 | 67.08423 | -49.98804 | 2508 ft | 98 kts | 51° |
| 2026-04-23 08:46 | 67.08807 | -49.97370 | 2523 ft | 97 kts | 50° |
| 2026-04-23 08:46 | 67.09189 | -49.95933 | 2535 ft | 97 kts | 52° |
| 2026-04-23 08:46 | 67.09527 | -49.94426 | 2551 ft | 96 kts | 58° |
| 2026-04-23 08:47 | 67.09785 | -49.92951 | 2755 ft | 85 kts | 60° |
| 2026-04-23 08:47 | 67.10021 | -49.91637 | 2967 ft | 77 kts | 58° |
| 2026-04-23 08:47 | 67.10263 | -49.90457 | 3149 ft | 72 kts | 54° |
| 2026-04-23 08:47 | 67.10525 | -49.89382 | 3401 ft | 71 kts | 49° |
| 2026-04-23 08:48 | 67.10823 | -49.88379 | 3649 ft | 71 kts | 45° |
| 2026-04-23 08:48 | 67.11156 | -49.87441 | 3891 ft | 72 kts | 46° |
| 2026-04-23 08:48 | 67.11474 | -49.86453 | 4125 ft | 72 kts | 50° |
| 2026-04-23 08:48 | 67.11706 | -49.85335 | 4346 ft | 70 kts | 60° |
| 2026-04-23 08:49 | 67.11881 | -49.84206 | 4600 ft | 66 kts | 59° |
| 2026-04-23 08:49 | 67.12051 | -49.83156 | 4862 ft | 61 kts | 58° |
| 2026-04-23 08:49 | 67.12209 | -49.82204 | 5126 ft | 55 kts | 56° |
| 2026-04-23 08:49 | 67.12336 | -49.81326 | 5424 ft | 50 kts | 54° |
| 2026-04-23 08:50 | 67.12451 | -49.80519 | 5725 ft | 46 kts | 52° |
| 2026-04-23 08:50 | 67.12561 | -49.79781 | 6013 ft | 42 kts | 48° |
| 2026-04-23 08:50 | 67.12670 | -49.79109 | 6271 ft | 39 kts | 44° |
| 2026-04-23 08:50 | 67.12785 | -49.78503 | 6503 ft | 36 kts | 37° |
| 2026-04-23 08:51 | 67.12911 | -49.77972 | 6706 ft | 33 kts | 347° |
| 2026-04-23 08:51 | 67.13032 | -49.77619 | 6857 ft | 23 kts | 352° |
| 2026-04-23 08:51 | 67.13168 | -49.76855 | 6995 ft | 73 kts | 340° |
| 2026-04-23 08:51 | 67.13652 | -49.75633 | 6985 ft | 118 kts | 47° |
| 2026-04-23 08:52 | 67.14008 | -49.74724 | 7209 ft | 103 kts | 50° |
| 2026-04-23 08:52 | 67.14397 | -49.73147 | 7223 ft | 109 kts | 63° |
| 2026-04-23 08:52 | 67.14503 | -49.70487 | 7101 ft | 119 kts | 101° |
| 2026-04-23 08:52 | 67.14337 | -49.68398 | 7084 ft | 116 kts | 103° |
| 2026-04-23 08:53 | 67.14208 | -49.67059 | 7108 ft | 112 kts | 104° |
| 2026-04-23 08:53 | 67.13957 | -49.64558 | 7185 ft | 107 kts | 103° |
| 2026-04-23 08:53 | 67.13802 | -49.62718 | 7239 ft | 104 kts | 101° |
| 2026-04-23 08:53 | 67.13719 | -49.61489 | 7324 ft | 103 kts | 97° |
| 2026-04-23 08:54 | 67.13639 | -49.59678 | 7465 ft | 101 kts | 93° |
| 2026-04-23 08:54 | 67.13611 | -49.57874 | 7602 ft | 101 kts | 89° |
| 2026-04-23 08:54 | 67.13633 | -49.56070 | 7729 ft | 101 kts | 85° |
| 2026-04-23 08:54 | 67.13633 | -49.54256 | 7840 ft | 101 kts | 92° |
| 2026-04-23 08:55 | 67.13560 | -49.52461 | 7955 ft | 101 kts | 98° |
| 2026-04-23 08:55 | 67.13413 | -49.50718 | 8076 ft | 99 kts | 105° |
| 2026-04-23 08:55 | 67.13193 | -49.49070 | 8197 ft | 96 kts | 113° |
| 2026-04-23 08:55 | 67.12910 | -49.47563 | 8329 ft | 93 kts | 119° |
| 2026-04-23 08:56 | 67.12621 | -49.46089 | 8469 ft | 91 kts | 117° |
| 2026-04-23 08:56 | 67.12359 | -49.44616 | 8604 ft | 90 kts | 115° |
| 2026-04-23 08:56 | 67.12122 | -49.43130 | 8736 ft | 90 kts | 112° |
| 2026-04-23 08:56 | 67.11911 | -49.41623 | 8868 ft | 90 kts | 110° |
| 2026-04-23 08:57 | 67.11727 | -49.40095 | 8994 ft | 90 kts | 107° |
| 2026-04-23 08:57 | 67.11569 | -49.38538 | 9117 ft | 90 kts | 105° |
| 2026-04-23 08:57 | 67.11438 | -49.36954 | 9244 ft | 91 kts | 102° |
| 2026-04-23 08:57 | 67.11334 | -49.35347 | 9363 ft | 92 kts | 99° |
| 2026-04-23 08:58 | 67.11259 | -49.33714 | 9478 ft | 93 kts | 96° |
| 2026-04-23 08:58 | 67.11214 | -49.32056 | 9591 ft | 93 kts | 93° |
| 2026-04-23 08:58 | 67.11202 | -49.30380 | 9694 ft | 94 kts | 90° |
| 2026-04-23 08:58 | 67.11222 | -49.28682 | 9800 ft | 96 kts | 87° |
| 2026-04-23 08:59 | 67.11216 | -49.26969 | 9880 ft | 96 kts | 96° |
| 2026-04-23 08:59 | 67.11108 | -49.25280 | 9969 ft | 95 kts | 103° |
| 2026-04-23 08:59 | 67.10991 | -49.23608 | 10088 ft | 95 kts | 101° |
| 2026-04-23 08:59 | 67.10884 | -49.21936 | 10198 ft | 95 kts | 101° |
| 2026-04-23 09:00 | 67.10781 | -49.20293 | 10299 ft | 94 kts | 101° |
| 2026-04-23 09:00 | 67.10679 | -49.18629 | 10396 ft | 94 kts | 101° |
| 2026-04-23 09:00 | 67.10580 | -49.16966 | 10490 ft | 94 kts | 101° |
| 2026-04-23 09:00 | 67.10483 | -49.15302 | 10597 ft | 94 kts | 101° |
| 2026-04-23 09:01 | 67.10384 | -49.13643 | 10691 ft | 94 kts | 102° |
| 2026-04-23 09:01 | 67.10281 | -49.11987 | 10786 ft | 94 kts | 102° |
| 2026-04-23 09:01 | 67.10174 | -49.10337 | 10883 ft | 94 kts | 103° |
| 2026-04-23 09:01 | 67.10065 | -49.08694 | 10975 ft | 93 kts | 104° |
| 2026-04-23 09:02 | 67.09951 | -49.07056 | 11063 ft | 93 kts | 104° |
| 2026-04-23 09:02 | 67.09834 | -49.05424 | 11152 ft | 93 kts | 105° |
| 2026-04-23 09:02 | 67.09711 | -49.03799 | 11241 ft | 93 kts | 106° |
| 2026-04-23 09:02 | 67.09584 | -49.02182 | 11327 ft | 92 kts | 107° |
| 2026-04-23 09:03 | 67.09432 | -49.00587 | 11395 ft | 91 kts | 112° |
| 2026-04-23 09:03 | 67.09232 | -48.99058 | 11474 ft | 89 kts | 118° |
| 2026-04-23 09:03 | 67.08985 | -48.97618 | 11545 ft | 87 kts | 124° |
| 2026-04-23 09:03 | 67.08693 | -48.96294 | 11621 ft | 84 kts | 131° |
| 2026-04-23 09:04 | 67.08359 | -48.95114 | 11690 ft | 80 kts | 139° |
| 2026-04-23 09:04 | 67.07990 | -48.94107 | 11758 ft | 76 kts | 145° |
| 2026-04-23 09:04 | 67.07671 | -48.93016 | 11871 ft | 80 kts | 126° |
| 2026-04-23 09:04 | 67.07560 | -48.91551 | 11979 ft | 89 kts | 94° |
| 2026-04-23 09:05 | 67.07587 | -48.89896 | 12019 ft | 96 kts | 93° |
| 2026-04-23 09:05 | 67.07583 | -48.88158 | 12044 ft | 99 kts | 97° |
| 2026-04-23 09:05 | 67.07538 | -48.86382 | 12070 ft | 101 kts | 102° |
| 2026-04-23 09:05 | 67.07458 | -48.84589 | 12105 ft | 103 kts | 102° |
| 2026-04-23 09:06 | 67.07368 | -48.82639 | 12114 ft | 116 kts | 101° |
| 2026-04-23 09:06 | 67.07285 | -48.80504 | 12162 ft | 121 kts | 100° |
| 2026-04-23 09:06 | 67.07226 | -48.78444 | 12367 ft | 111 kts | 98° |
| 2026-04-23 09:06 | 67.07195 | -48.76449 | 12471 ft | 116 kts | 97° |
| 2026-04-23 09:07 | 67.07164 | -48.74352 | 12515 ft | 123 kts | 97° |
| 2026-04-23 09:07 | 67.07128 | -48.72148 | 12596 ft | 122 kts | 98° |
| 2026-04-23 09:07 | 67.07091 | -48.69916 | 12654 ft | 125 kts | 98° |
| 2026-04-23 09:07 | 67.07053 | -48.67780 | 12780 ft | 119 kts | 99° |
| 2026-04-23 09:08 | 67.07011 | -48.65654 | 12827 ft | 123 kts | 99° |
| 2026-04-23 09:08 | 67.06962 | -48.63455 | 12893 ft | 123 kts | 100° |
| 2026-04-23 09:08 | 67.06909 | -48.61289 | 12988 ft | 121 kts | 101° |
| 2026-04-23 09:08 | 67.06852 | -48.59157 | 13068 ft | 119 kts | 101° |
| 2026-04-23 09:09 | 67.06789 | -48.57052 | 13153 ft | 118 kts | 102° |
| 2026-04-23 09:09 | 67.06719 | -48.54968 | 13194 ft | 117 kts | 102° |
| 2026-04-23 09:09 | 67.06641 | -48.52905 | 13265 ft | 116 kts | 103° |
| 2026-04-23 09:09 | 67.06556 | -48.50842 | 13328 ft | 116 kts | 104° |
| 2026-04-23 09:10 | 67.06463 | -48.48794 | 13387 ft | 115 kts | 105° |
| 2026-04-23 09:10 | 67.06250 | -48.44741 | 13505 ft | 114 kts | 107° |
| 2026-04-23 09:10 | 67.06128 | -48.42694 | 13521 ft | 119 kts | 108° |
| 2026-04-23 09:11 | 67.05981 | -48.40574 | 13522 ft | 122 kts | 109° |
| 2026-04-23 09:11 | 67.05817 | -48.38481 | 13595 ft | 117 kts | 111° |
| 2026-04-23 09:11 | 67.05647 | -48.36478 | 13675 ft | 113 kts | 112° |
| 2026-04-23 09:11 | 67.05468 | -48.34545 | 13748 ft | 110 kts | 114° |
| 2026-04-23 09:12 | 67.05280 | -48.32659 | 13804 ft | 110 kts | 115° |
| 2026-04-23 09:12 | 67.05086 | -48.30747 | 13829 ft | 112 kts | 115° |
| 2026-04-23 09:12 | 67.04882 | -48.28808 | 13858 ft | 113 kts | 115° |
| 2026-04-23 09:12 | 67.04672 | -48.26856 | 13903 ft | 114 kts | 116° |
| 2026-04-23 09:13 | 67.04456 | -48.24894 | 13948 ft | 115 kts | 116° |
| 2026-04-23 09:13 | 67.04237 | -48.22920 | 13978 ft | 116 kts | 116° |
| 2026-04-23 09:13 | 67.04009 | -48.20911 | 13999 ft | 118 kts | 117° |
| 2026-04-23 09:13 | 67.03775 | -48.18896 | 14044 ft | 117 kts | 117° |
| 2026-04-23 09:14 | 67.03538 | -48.16883 | 14064 ft | 118 kts | 118° |
| 2026-04-23 09:14 | 67.03302 | -48.14909 | 14134 ft | 114 kts | 118° |
| 2026-04-23 09:14 | 67.03075 | -48.12991 | 14201 ft | 111 kts | 118° |
| 2026-04-23 09:14 | 67.02857 | -48.11140 | 14257 ft | 109 kts | 118° |
| 2026-04-23 09:15 | 67.02641 | -48.09287 | 14306 ft | 108 kts | 118° |
| 2026-04-23 09:15 | 67.02428 | -48.07457 | 14352 ft | 107 kts | 118° |
| 2026-04-23 09:15 | 67.02218 | -48.05639 | 14388 ft | 106 kts | 118° |
| 2026-04-23 09:15 | 67.02009 | -48.03829 | 14434 ft | 106 kts | 118° |
| 2026-04-23 09:16 | 67.01803 | -48.02025 | 14474 ft | 105 kts | 118° |
| 2026-04-23 09:16 | 67.01600 | -48.00226 | 14508 ft | 105 kts | 118° |
| 2026-04-23 09:16 | 67.01398 | -47.98425 | 14542 ft | 105 kts | 118° |
| 2026-04-23 09:16 | 67.01198 | -47.96628 | 14595 ft | 105 kts | 118° |
| 2026-04-23 09:17 | 67.01001 | -47.94829 | 14639 ft | 105 kts | 118° |
| 2026-04-23 09:17 | 67.00807 | -47.93030 | 14686 ft | 105 kts | 117° |
| 2026-04-23 09:17 | 67.00616 | -47.91229 | 14727 ft | 105 kts | 117° |
| 2026-04-23 09:17 | 67.00427 | -47.89426 | 14761 ft | 105 kts | 117° |
| 2026-04-23 09:18 | 67.00242 | -47.87623 | 14792 ft | 105 kts | 117° |
| 2026-04-23 09:18 | 67.00058 | -47.85816 | 14828 ft | 105 kts | 117° |
| 2026-04-23 09:18 | 66.99875 | -47.84008 | 14853 ft | 105 kts | 117° |
| 2026-04-23 09:18 | 66.99693 | -47.82199 | 14883 ft | 105 kts | 117° |
| 2026-04-23 09:19 | 66.99512 | -47.80386 | 14914 ft | 105 kts | 117° |
| 2026-04-23 09:19 | 66.99332 | -47.78574 | 14939 ft | 105 kts | 117° |
| 2026-04-23 09:19 | 66.99152 | -47.76762 | 14962 ft | 105 kts | 117° |
| 2026-04-23 09:19 | 66.98975 | -47.74951 | 14987 ft | 105 kts | 116° |
| 2026-04-23 09:20 | 66.98798 | -47.73135 | 15010 ft | 105 kts | 116° |
| 2026-04-23 09:20 | 66.98623 | -47.71322 | 15040 ft | 105 kts | 116° |
| 2026-04-23 09:20 | 66.98449 | -47.69509 | 15069 ft | 105 kts | 116° |
| 2026-04-23 09:20 | 66.98276 | -47.67694 | 15094 ft | 105 kts | 116° |
| 2026-04-23 09:21 | 66.98105 | -47.65878 | 15114 ft | 105 kts | 116° |
| 2026-04-23 09:21 | 66.97935 | -47.64064 | 15135 ft | 105 kts | 116° |
| 2026-04-23 09:21 | 66.97766 | -47.62249 | 15157 ft | 105 kts | 116° |
| 2026-04-23 09:21 | 66.97598 | -47.60433 | 15189 ft | 105 kts | 116° |
| 2026-04-23 09:22 | 66.97432 | -47.58616 | 15218 ft | 105 kts | 116° |
| 2026-04-23 09:22 | 66.97267 | -47.56795 | 15213 ft | 105 kts | 113° |
| 2026-04-23 09:22 | 66.97105 | -47.54966 | 15234 ft | 106 kts | 112° |
| 2026-04-23 09:22 | 66.96946 | -47.53125 | 15251 ft | 106 kts | 112° |
| 2026-04-23 09:23 | 66.96791 | -47.51279 | 15265 ft | 107 kts | 111° |
| 2026-04-23 09:23 | 66.96640 | -47.49427 | 15290 ft | 107 kts | 111° |
| 2026-04-23 09:23 | 66.96493 | -47.47563 | 15312 ft | 107 kts | 110° |
| 2026-04-23 09:23 | 66.96351 | -47.45695 | 15331 ft | 107 kts | 109° |
| 2026-04-23 09:24 | 66.96217 | -47.43841 | 15342 ft | 108 kts | 108° |
| 2026-04-23 09:24 | 66.96086 | -47.41953 | 15362 ft | 108 kts | 108° |
| 2026-04-23 09:24 | 66.95963 | -47.40053 | 15392 ft | 109 kts | 107° |
| 2026-04-23 09:24 | 66.95847 | -47.38136 | 15403 ft | 111 kts | 106° |
| 2026-04-23 09:25 | 66.95729 | -47.36125 | 15356 ft | 118 kts | 106° |
| 2026-04-23 09:25 | 66.95599 | -47.33983 | 15297 ft | 126 kts | 106° |
| 2026-04-23 09:25 | 66.95469 | -47.31762 | 15256 ft | 126 kts | 107° |
| 2026-04-23 09:25 | 66.95335 | -47.29550 | 15162 ft | 126 kts | 108° |
| 2026-04-23 09:26 | 66.95192 | -47.27347 | 15077 ft | 126 kts | 108° |
| 2026-04-23 09:26 | 66.95039 | -47.25152 | 14991 ft | 125 kts | 109° |
| 2026-04-23 09:26 | 66.94876 | -47.22972 | 14905 ft | 125 kts | 110° |
| 2026-04-23 09:26 | 66.94705 | -47.20802 | 14821 ft | 124 kts | 110° |
| 2026-04-23 09:27 | 66.94525 | -47.18647 | 14737 ft | 124 kts | 111° |
| 2026-04-23 09:27 | 66.94336 | -47.16504 | 14655 ft | 124 kts | 112° |
| 2026-04-23 09:27 | 66.94138 | -47.14375 | 14578 ft | 123 kts | 112° |
| 2026-04-23 09:27 | 66.93931 | -47.12262 | 14504 ft | 123 kts | 113° |
| 2026-04-23 09:28 | 66.93716 | -47.10163 | 14443 ft | 121 kts | 114° |
| 2026-04-23 09:28 | 66.93506 | -47.08119 | 14407 ft | 118 kts | 114° |
| 2026-04-23 09:28 | 66.93300 | -47.06115 | 14371 ft | 116 kts | 114° |
| 2026-04-23 09:28 | 66.93099 | -47.04145 | 14331 ft | 114 kts | 114° |
| 2026-04-23 09:29 | 66.92900 | -47.02192 | 14293 ft | 113 kts | 114° |
| 2026-04-23 09:29 | 66.92705 | -47.00253 | 14254 ft | 113 kts | 113° |
| 2026-04-23 09:29 | 66.92515 | -46.98331 | 14225 ft | 111 kts | 113° |
| 2026-04-23 09:29 | 66.92330 | -46.96433 | 14196 ft | 110 kts | 112° |
| 2026-04-23 09:30 | 66.92151 | -46.94546 | 14166 ft | 109 kts | 112° |
| 2026-04-23 09:30 | 66.91978 | -46.92667 | 14141 ft | 109 kts | 111° |
| 2026-04-23 09:30 | 66.91813 | -46.90817 | 14115 ft | 108 kts | 111° |
| 2026-04-23 09:30 | 66.91653 | -46.88939 | 14086 ft | 108 kts | 110° |
| 2026-04-23 09:31 | 66.91500 | -46.87058 | 14060 ft | 108 kts | 109° |
| 2026-04-23 09:31 | 66.91355 | -46.85170 | 14028 ft | 109 kts | 108° |
| 2026-04-23 09:31 | 66.91219 | -46.83277 | 13996 ft | 109 kts | 107° |
| 2026-04-23 09:31 | 66.91093 | -46.81376 | 13958 ft | 109 kts | 106° |
| 2026-04-23 09:32 | 66.90971 | -46.79468 | 13923 ft | 109 kts | 107° |
| 2026-04-23 09:32 | 66.90827 | -46.77582 | 13888 ft | 108 kts | 110° |
| 2026-04-23 09:32 | 66.90657 | -46.75723 | 13849 ft | 107 kts | 112° |
| 2026-04-23 09:32 | 66.90462 | -46.73902 | 13820 ft | 106 kts | 116° |
| 2026-04-23 09:33 | 66.90239 | -46.72126 | 13786 ft | 104 kts | 118° |
| 2026-04-23 09:33 | 66.89989 | -46.70407 | 13754 ft | 103 kts | 122° |
| 2026-04-23 09:33 | 66.89711 | -46.68747 | 13718 ft | 101 kts | 126° |
| 2026-04-23 09:33 | 66.89405 | -46.67159 | 13683 ft | 99 kts | 129° |
| 2026-04-23 09:34 | 66.89072 | -46.65653 | 13647 ft | 97 kts | 133° |
| 2026-04-23 09:34 | 66.88719 | -46.64213 | 13634 ft | 96 kts | 133° |
| 2026-04-23 09:34 | 66.88406 | -46.62700 | 13631 ft | 98 kts | 126° |
| 2026-04-23 09:34 | 66.88148 | -46.61075 | 13623 ft | 101 kts | 119° |
| 2026-04-23 09:35 | 66.87959 | -46.59330 | 13582 ft | 104 kts | 109° |
| 2026-04-23 09:35 | 66.87816 | -46.57494 | 13550 ft | 107 kts | 109° |
| 2026-04-23 09:35 | 66.87640 | -46.55646 | 13515 ft | 108 kts | 112° |
| 2026-04-23 09:35 | 66.87437 | -46.53801 | 13485 ft | 109 kts | 114° |
| 2026-04-23 09:36 | 66.87216 | -46.51966 | 13457 ft | 108 kts | 116° |
| 2026-04-23 09:36 | 66.86977 | -46.50150 | 13435 ft | 108 kts | 118° |
| 2026-04-23 09:36 | 66.86719 | -46.48361 | 13412 ft | 107 kts | 119° |
| 2026-04-23 09:36 | 66.86453 | -46.46591 | 13400 ft | 107 kts | 120° |
| 2026-04-23 09:37 | 66.86181 | -46.44837 | 13378 ft | 106 kts | 121° |
| 2026-04-23 09:37 | 66.85902 | -46.43101 | 13380 ft | 106 kts | 122° |
| 2026-04-23 09:37 | 66.85643 | -46.41339 | 13402 ft | 107 kts | 116° |
| 2026-04-23 09:37 | 66.85445 | -46.39494 | 13405 ft | 109 kts | 111° |
| 2026-04-23 09:38 | 66.85272 | -46.37601 | 13395 ft | 111 kts | 109° |
| 2026-04-23 09:38 | 66.85111 | -46.35678 | 13379 ft | 112 kts | 108° |
| 2026-04-23 09:38 | 66.84963 | -46.33733 | 13380 ft | 113 kts | 106° |
| 2026-04-23 09:38 | 66.84830 | -46.31766 | 13375 ft | 113 kts | 105° |
| 2026-04-23 09:39 | 66.84713 | -46.29777 | 13367 ft | 114 kts | 103° |
| 2026-04-23 09:39 | 66.84610 | -46.27800 | 13356 ft | 115 kts | 102° |
| 2026-04-23 09:39 | 66.84516 | -46.25753 | 13336 ft | 115 kts | 101° |
| 2026-04-23 09:39 | 66.84426 | -46.23752 | 13308 ft | 116 kts | 101° |
| 2026-04-23 09:40 | 66.84326 | -46.21721 | 13273 ft | 116 kts | 102° |
| 2026-04-23 09:40 | 66.84218 | -46.19697 | 13229 ft | 116 kts | 103° |
| 2026-04-23 09:40 | 66.84092 | -46.17686 | 13188 ft | 115 kts | 105° |
| 2026-04-23 09:40 | 66.83940 | -46.15700 | 13164 ft | 114 kts | 108° |
| 2026-04-23 09:41 | 66.83762 | -46.13750 | 13126 ft | 113 kts | 110° |
| 2026-04-23 09:41 | 66.83557 | -46.11832 | 13096 ft | 112 kts | 113° |
| 2026-04-23 09:41 | 66.83324 | -46.09959 | 13060 ft | 110 kts | 116° |
| 2026-04-23 09:41 | 66.83063 | -46.08139 | 13036 ft | 109 kts | 119° |
| 2026-04-23 09:42 | 66.82773 | -46.06377 | 13013 ft | 107 kts | 122° |
| 2026-04-23 09:42 | 66.82455 | -46.04682 | 13000 ft | 106 kts | 126° |
| 2026-04-23 09:42 | 66.82119 | -46.03036 | 12996 ft | 105 kts | 124° |
| 2026-04-23 09:42 | 66.81828 | -46.01327 | 13000 ft | 106 kts | 119° |
| 2026-04-23 09:43 | 66.81591 | -45.99535 | 13000 ft | 108 kts | 112° |
| 2026-04-23 09:43 | 66.81397 | -45.97675 | 12990 ft | 110 kts | 110° |
| 2026-04-23 09:43 | 66.81216 | -45.95787 | 12974 ft | 110 kts | 109° |
| 2026-04-23 09:43 | 66.81042 | -45.93883 | 12958 ft | 111 kts | 108° |
| 2026-04-23 09:44 | 66.80927 | -45.92592 | 12949 ft | 111 kts | 108° |
| 2026-04-23 09:44 | 66.80759 | -45.90696 | 12925 ft | 112 kts | 108° |
| 2026-04-23 09:44 | 66.80584 | -45.88774 | 12898 ft | 112 kts | 109° |
| 2026-04-23 09:44 | 66.80397 | -45.86859 | 12866 ft | 112 kts | 110° |
| 2026-04-23 09:45 | 66.80194 | -45.84963 | 12837 ft | 111 kts | 112° |
| 2026-04-23 09:45 | 66.79983 | -45.83077 | 12813 ft | 111 kts | 112° |
| 2026-04-23 09:45 | 66.79767 | -45.81202 | 12789 ft | 111 kts | 113° |
| 2026-04-23 09:45 | 66.79544 | -45.79337 | 12775 ft | 110 kts | 114° |
| 2026-04-23 09:46 | 66.79314 | -45.77487 | 12756 ft | 110 kts | 114° |
| 2026-04-23 09:46 | 66.79078 | -45.75650 | 12735 ft | 109 kts | 115° |
| 2026-04-23 09:46 | 66.78836 | -45.73828 | 12721 ft | 109 kts | 115° |
| 2026-04-23 09:46 | 66.78594 | -45.72010 | 12713 ft | 109 kts | 115° |
| 2026-04-23 09:47 | 66.78362 | -45.70184 | 12700 ft | 109 kts | 114° |
| 2026-04-23 09:47 | 66.78140 | -45.68349 | 12686 ft | 109 kts | 113° |
| 2026-04-23 09:47 | 66.77929 | -45.66503 | 12674 ft | 109 kts | 112° |
| 2026-04-23 09:47 | 66.77730 | -45.64641 | 12670 ft | 110 kts | 111° |
| 2026-04-23 09:48 | 66.77541 | -45.62768 | 12632 ft | 110 kts | 108° |
| 2026-04-23 09:48 | 66.77364 | -45.60879 | 12604 ft | 111 kts | 107° |
| 2026-04-23 09:48 | 66.77197 | -45.58977 | 12595 ft | 111 kts | 106° |
| 2026-04-23 09:48 | 66.77040 | -45.57062 | 12590 ft | 111 kts | 105° |
| 2026-04-23 09:49 | 66.76887 | -45.55139 | 12578 ft | 111 kts | 105° |
| 2026-04-23 09:49 | 66.76733 | -45.53214 | 12568 ft | 111 kts | 105° |
| 2026-04-23 09:49 | 66.76577 | -45.51293 | 12565 ft | 111 kts | 105° |
| 2026-04-23 09:49 | 66.76421 | -45.49370 | 12556 ft | 111 kts | 105° |
| 2026-04-23 09:50 | 66.76266 | -45.47476 | 12545 ft | 111 kts | 105° |
| 2026-04-23 09:50 | 66.76109 | -45.45555 | 12534 ft | 111 kts | 105° |
| 2026-04-23 09:50 | 66.75951 | -45.43637 | 12527 ft | 111 kts | 105° |
| 2026-04-23 09:50 | 66.75793 | -45.41718 | 12523 ft | 111 kts | 105° |
| 2026-04-23 09:51 | 66.75634 | -45.39800 | 12521 ft | 111 kts | 105° |
| 2026-04-23 09:51 | 66.75471 | -45.37889 | 12527 ft | 111 kts | 106° |
| 2026-04-23 09:51 | 66.75298 | -45.35984 | 12510 ft | 111 kts | 107° |
| 2026-04-23 09:51 | 66.75117 | -45.34091 | 12510 ft | 111 kts | 108° |
| 2026-04-23 09:52 | 66.74924 | -45.32211 | 12505 ft | 110 kts | 109° |
| 2026-04-23 09:52 | 66.74722 | -45.30346 | 12504 ft | 110 kts | 110° |
| 2026-04-23 09:52 | 66.74508 | -45.28500 | 12504 ft | 109 kts | 111° |
| 2026-04-23 09:52 | 66.74283 | -45.26671 | 12506 ft | 109 kts | 113° |
| 2026-04-23 09:53 | 66.74045 | -45.24861 | 12521 ft | 108 kts | 114° |
| 2026-04-23 09:53 | 66.73795 | -45.23077 | 12522 ft | 107 kts | 115° |
| 2026-04-23 09:53 | 66.73533 | -45.21318 | 12530 ft | 107 kts | 117° |
| 2026-04-23 09:53 | 66.73256 | -45.19584 | 12521 ft | 106 kts | 118° |
| 2026-04-23 09:54 | 66.72966 | -45.17879 | 12522 ft | 105 kts | 120° |
| 2026-04-23 09:54 | 66.72662 | -45.16209 | 12530 ft | 104 kts | 122° |
| 2026-04-23 09:54 | 66.72344 | -45.14573 | 12532 ft | 103 kts | 123° |
| 2026-04-23 09:54 | 66.72010 | -45.12975 | 12534 ft | 102 kts | 126° |
| 2026-04-23 09:55 | 66.71666 | -45.11414 | 12546 ft | 102 kts | 125° |
| 2026-04-23 09:55 | 66.71380 | -45.09758 | 12570 ft | 104 kts | 115° |
| 2026-04-23 09:55 | 66.71161 | -45.07995 | 12574 ft | 106 kts | 112° |
| 2026-04-23 09:55 | 66.70943 | -45.06210 | 12570 ft | 107 kts | 112° |
| 2026-04-23 09:56 | 66.70723 | -45.04409 | 12568 ft | 107 kts | 112° |
| 2026-04-23 09:56 | 66.70502 | -45.02604 | 12568 ft | 108 kts | 112° |
| 2026-04-23 09:56 | 66.70279 | -45.00791 | 12566 ft | 108 kts | 112° |
| 2026-04-23 09:56 | 66.70059 | -44.99003 | 12559 ft | 108 kts | 112° |
| 2026-04-23 09:57 | 66.69836 | -44.97191 | 12545 ft | 108 kts | 112° |
| 2026-04-23 09:57 | 66.69612 | -44.95374 | 12535 ft | 108 kts | 112° |
| 2026-04-23 09:57 | 66.69388 | -44.93557 | 12531 ft | 108 kts | 112° |
| 2026-04-23 09:57 | 66.69164 | -44.91741 | 12505 ft | 108 kts | 112° |
| 2026-04-23 09:58 | 66.68940 | -44.89927 | 12491 ft | 108 kts | 112° |
| 2026-04-23 09:58 | 66.68717 | -44.88114 | 12483 ft | 108 kts | 112° |
| 2026-04-23 09:58 | 66.68495 | -44.86301 | 12477 ft | 108 kts | 112° |
| 2026-04-23 09:58 | 66.68273 | -44.84487 | 12471 ft | 108 kts | 112° |
| 2026-04-23 09:59 | 66.68051 | -44.82674 | 12467 ft | 108 kts | 111° |
| 2026-04-23 09:59 | 66.67831 | -44.80861 | 12462 ft | 108 kts | 111° |
| 2026-04-23 09:59 | 66.67613 | -44.79051 | 12455 ft | 108 kts | 111° |
| 2026-04-23 09:59 | 66.67395 | -44.77237 | 12449 ft | 108 kts | 111° |
| 2026-04-23 10:00 | 66.67180 | -44.75423 | 12437 ft | 108 kts | 111° |
| 2026-04-23 10:00 | 66.66966 | -44.73607 | 12437 ft | 108 kts | 111° |
| 2026-04-23 10:00 | 66.66754 | -44.71789 | 12441 ft | 108 kts | 110° |
| 2026-04-23 10:00 | 66.66544 | -44.69971 | 12451 ft | 108 kts | 110° |
| 2026-04-23 10:01 | 66.66336 | -44.68151 | 12433 ft | 108 kts | 107° |
| 2026-04-23 10:01 | 66.66133 | -44.66346 | 12443 ft | 107 kts | 107° |
| 2026-04-23 10:01 | 66.65935 | -44.64551 | 12457 ft | 106 kts | 106° |
| 2026-04-23 10:01 | 66.65742 | -44.62758 | 12468 ft | 106 kts | 106° |
| 2026-04-23 10:02 | 66.65555 | -44.60968 | 12474 ft | 106 kts | 105° |
| 2026-04-23 10:02 | 66.65375 | -44.59173 | 12476 ft | 106 kts | 104° |
| 2026-04-23 10:02 | 66.65202 | -44.57377 | 12478 ft | 105 kts | 104° |
| 2026-04-23 10:02 | 66.65036 | -44.55577 | 12480 ft | 105 kts | 103° |
| 2026-04-23 10:03 | 66.64877 | -44.53771 | 12486 ft | 106 kts | 102° |
| 2026-04-23 10:03 | 66.64727 | -44.51961 | 12500 ft | 106 kts | 101° |
| 2026-04-23 10:03 | 66.64585 | -44.50143 | 12509 ft | 106 kts | 101° |
| 2026-04-23 10:03 | 66.64453 | -44.48319 | 12508 ft | 106 kts | 99° |
| 2026-04-23 10:04 | 66.64330 | -44.46487 | 12514 ft | 106 kts | 99° |
| 2026-04-23 10:04 | 66.64218 | -44.44647 | 12523 ft | 106 kts | 98° |
| 2026-04-23 10:04 | 66.64117 | -44.42798 | 12530 ft | 107 kts | 97° |
| 2026-04-23 10:04 | 66.64029 | -44.40969 | 12535 ft | 107 kts | 96° |
| 2026-04-23 10:05 | 66.63952 | -44.39105 | 12536 ft | 107 kts | 94° |
| 2026-04-23 10:05 | 66.63887 | -44.37208 | 12541 ft | 107 kts | 93° |
| 2026-04-23 10:05 | 66.63830 | -44.35327 | 12544 ft | 108 kts | 93° |
| 2026-04-23 10:05 | 66.63766 | -44.33444 | 12546 ft | 108 kts | 94° |
| 2026-04-23 10:06 | 66.63681 | -44.31564 | 12544 ft | 108 kts | 97° |
| 2026-04-23 10:06 | 66.63573 | -44.29722 | 12539 ft | 108 kts | 99° |
| 2026-04-23 10:06 | 66.63424 | -44.27878 | 12532 ft | 107 kts | 104° |
| 2026-04-23 10:06 | 66.63226 | -44.26053 | 12516 ft | 106 kts | 109° |
| 2026-04-23 10:07 | 66.62984 | -44.24334 | 12502 ft | 105 kts | 114° |
| 2026-04-23 10:07 | 66.62689 | -44.22666 | 12480 ft | 104 kts | 120° |
| 2026-04-23 10:07 | 66.62343 | -44.21092 | 12462 ft | 102 kts | 126° |
| 2026-04-23 10:07 | 66.61961 | -44.19613 | 12455 ft | 100 kts | 127° |
| 2026-04-23 10:08 | 66.61609 | -44.18099 | 12463 ft | 100 kts | 122° |
| 2026-04-23 10:08 | 66.61302 | -44.16519 | 12467 ft | 101 kts | 116° |
| 2026-04-23 10:08 | 66.61043 | -44.14866 | 12468 ft | 102 kts | 111° |
| 2026-04-23 10:09 | 66.60645 | -44.11392 | 12457 ft | 104 kts | 106° |
| 2026-04-23 10:09 | 66.60458 | -44.09620 | 12456 ft | 105 kts | 105° |
| 2026-04-23 10:09 | 66.60276 | -44.07832 | 12454 ft | 106 kts | 105° |
| 2026-04-23 10:09 | 66.60099 | -44.06032 | 12453 ft | 106 kts | 104° |
| 2026-04-23 10:10 | 66.59929 | -44.04223 | 12454 ft | 106 kts | 104° |
| 2026-04-23 10:10 | 66.59764 | -44.02406 | 12455 ft | 107 kts | 103° |
| 2026-04-23 10:10 | 66.59606 | -44.00580 | 12455 ft | 107 kts | 103° |
| 2026-04-23 10:10 | 66.59422 | -43.98769 | 12449 ft | 107 kts | 107° |
| 2026-04-23 10:11 | 66.59202 | -43.96990 | 12443 ft | 106 kts | 110° |
| 2026-04-23 10:11 | 66.58944 | -43.95261 | 12437 ft | 105 kts | 114° |
| 2026-04-23 10:11 | 66.58647 | -43.93589 | 12434 ft | 104 kts | 118° |
| 2026-04-23 10:11 | 66.58314 | -43.91982 | 12434 ft | 103 kts | 121° |
| 2026-04-23 10:12 | 66.57977 | -43.90401 | 12438 ft | 102 kts | 121° |
| 2026-04-23 10:12 | 66.57645 | -43.88827 | 12443 ft | 102 kts | 121° |
| 2026-04-23 10:12 | 66.57316 | -43.87255 | 12438 ft | 101 kts | 121° |
| 2026-04-23 10:12 | 66.56997 | -43.85706 | 12437 ft | 101 kts | 120° |
| 2026-04-23 10:13 | 66.56674 | -43.84111 | 12433 ft | 101 kts | 120° |
| 2026-04-23 10:13 | 66.56363 | -43.82556 | 12434 ft | 101 kts | 119° |
| 2026-04-23 10:13 | 66.56052 | -43.80972 | 12436 ft | 101 kts | 119° |
| 2026-04-23 10:13 | 66.55746 | -43.79386 | 12439 ft | 101 kts | 118° |
| 2026-04-23 10:14 | 66.55445 | -43.77792 | 12441 ft | 101 kts | 118° |
| 2026-04-23 10:14 | 66.55148 | -43.76191 | 12445 ft | 101 kts | 117° |
| 2026-04-23 10:14 | 66.54860 | -43.74580 | 12436 ft | 101 kts | 114° |
| 2026-04-23 10:14 | 66.54571 | -43.72966 | 12445 ft | 101 kts | 112° |
| 2026-04-23 10:15 | 66.54284 | -43.71350 | 12457 ft | 101 kts | 112° |
| 2026-04-23 10:15 | 66.54000 | -43.69733 | 12465 ft | 101 kts | 112° |
| 2026-04-23 10:15 | 66.53718 | -43.68111 | 12481 ft | 101 kts | 111° |
| 2026-04-23 10:15 | 66.53439 | -43.66488 | 12489 ft | 101 kts | 111° |
| 2026-04-23 10:16 | 66.53163 | -43.64860 | 12489 ft | 101 kts | 111° |
| 2026-04-23 10:16 | 66.52892 | -43.63227 | 12500 ft | 101 kts | 110° |
| 2026-04-23 10:16 | 66.52628 | -43.61590 | 12508 ft | 101 kts | 109° |
| 2026-04-23 10:16 | 66.52374 | -43.59966 | 12517 ft | 101 kts | 109° |
| 2026-04-23 10:17 | 66.52124 | -43.58314 | 12530 ft | 101 kts | 108° |
| 2026-04-23 10:17 | 66.51883 | -43.56655 | 12533 ft | 101 kts | 107° |
| 2026-04-23 10:17 | 66.51650 | -43.54986 | 12542 ft | 101 kts | 106° |
| 2026-04-23 10:17 | 66.51427 | -43.53308 | 12548 ft | 102 kts | 105° |
| 2026-04-23 10:18 | 66.51213 | -43.51621 | 12557 ft | 102 kts | 104° |
| 2026-04-23 10:18 | 66.51011 | -43.49923 | 12564 ft | 102 kts | 103° |
| 2026-04-23 10:18 | 66.50816 | -43.48218 | 12570 ft | 102 kts | 103° |
| 2026-04-23 10:18 | 66.50622 | -43.46508 | 12573 ft | 102 kts | 103° |
| 2026-04-23 10:19 | 66.50426 | -43.44798 | 12577 ft | 102 kts | 103° |
| 2026-04-23 10:19 | 66.50230 | -43.43086 | 12578 ft | 102 kts | 103° |
| 2026-04-23 10:19 | 66.50032 | -43.41378 | 12581 ft | 102 kts | 103° |
| 2026-04-23 10:19 | 66.49832 | -43.39672 | 12586 ft | 102 kts | 104° |
| 2026-04-23 10:20 | 66.49628 | -43.37971 | 12595 ft | 102 kts | 104° |
| 2026-04-23 10:20 | 66.49422 | -43.36273 | 12596 ft | 102 kts | 104° |
| 2026-04-23 10:20 | 66.49212 | -43.34580 | 12605 ft | 102 kts | 104° |
| 2026-04-23 10:20 | 66.48999 | -43.32893 | 12612 ft | 102 kts | 105° |
| 2026-04-23 10:21 | 66.48783 | -43.31210 | 12622 ft | 101 kts | 105° |
| 2026-04-23 10:21 | 66.48565 | -43.29536 | 12632 ft | 101 kts | 105° |
| 2026-04-23 10:21 | 66.48344 | -43.27865 | 12642 ft | 101 kts | 106° |
| 2026-04-23 10:21 | 66.48121 | -43.26198 | 12651 ft | 101 kts | 106° |
| 2026-04-23 10:22 | 66.47896 | -43.24537 | 12658 ft | 101 kts | 106° |
| 2026-04-23 10:22 | 66.47671 | -43.22880 | 12668 ft | 101 kts | 106° |
| 2026-04-23 10:22 | 66.47447 | -43.21224 | 12680 ft | 100 kts | 106° |
| 2026-04-23 10:22 | 66.47222 | -43.19571 | 12681 ft | 100 kts | 106° |
| 2026-04-23 10:23 | 66.46997 | -43.17922 | 12698 ft | 100 kts | 106° |
| 2026-04-23 10:23 | 66.46772 | -43.16276 | 12718 ft | 100 kts | 106° |
| 2026-04-23 10:23 | 66.46547 | -43.14631 | 12731 ft | 100 kts | 106° |
| 2026-04-23 10:23 | 66.46322 | -43.12989 | 12742 ft | 100 kts | 106° |
| 2026-04-23 10:24 | 66.46100 | -43.11373 | 12751 ft | 100 kts | 106° |
| 2026-04-23 10:24 | 66.45876 | -43.09736 | 12765 ft | 99 kts | 107° |
| 2026-04-23 10:24 | 66.45651 | -43.08103 | 12777 ft | 99 kts | 107° |
| 2026-04-23 10:24 | 66.45426 | -43.06471 | 12791 ft | 99 kts | 107° |
| 2026-04-23 10:25 | 66.45201 | -43.04841 | 12806 ft | 99 kts | 107° |
| 2026-04-23 10:25 | 66.44976 | -43.03213 | 12828 ft | 99 kts | 107° |
| 2026-04-23 10:25 | 66.44752 | -43.01587 | 12841 ft | 99 kts | 107° |
| 2026-04-23 10:25 | 66.44527 | -42.99960 | 12857 ft | 99 kts | 107° |
| 2026-04-23 10:26 | 66.44302 | -42.98338 | 12876 ft | 99 kts | 107° |
| 2026-04-23 10:26 | 66.44078 | -42.96716 | 12895 ft | 99 kts | 107° |
| 2026-04-23 10:26 | 66.43854 | -42.95099 | 12913 ft | 98 kts | 107° |
| 2026-04-23 10:26 | 66.43631 | -42.93483 | 12929 ft | 98 kts | 107° |
| 2026-04-23 10:27 | 66.43408 | -42.91867 | 12942 ft | 98 kts | 107° |
| 2026-04-23 10:27 | 66.43187 | -42.90254 | 12955 ft | 98 kts | 107° |
| 2026-04-23 10:27 | 66.42966 | -42.88642 | 12971 ft | 98 kts | 107° |
| 2026-04-23 10:27 | 66.42747 | -42.87032 | 12989 ft | 98 kts | 107° |
| 2026-04-23 10:28 | 66.42528 | -42.85421 | 13004 ft | 98 kts | 107° |
| 2026-04-23 10:28 | 66.42311 | -42.83814 | 12998 ft | 98 kts | 107° |
| 2026-04-23 10:28 | 66.42096 | -42.82213 | 13006 ft | 97 kts | 105° |
| 2026-04-23 10:28 | 66.41883 | -42.80626 | 13023 ft | 96 kts | 104° |
| 2026-04-23 10:29 | 66.41673 | -42.79049 | 13034 ft | 95 kts | 104° |
| 2026-04-23 10:29 | 66.41467 | -42.77479 | 13051 ft | 95 kts | 104° |
| 2026-04-23 10:29 | 66.41264 | -42.75912 | 13071 ft | 95 kts | 104° |
| 2026-04-23 10:29 | 66.41064 | -42.74348 | 13090 ft | 95 kts | 103° |
| 2026-04-23 10:30 | 66.40868 | -42.72782 | 13107 ft | 94 kts | 103° |
| 2026-04-23 10:30 | 66.40668 | -42.71224 | 13123 ft | 94 kts | 104° |
| 2026-04-23 10:30 | 66.40456 | -42.69676 | 13140 ft | 94 kts | 105° |
| 2026-04-23 10:30 | 66.40235 | -42.68162 | 13155 ft | 94 kts | 107° |
| 2026-04-23 10:31 | 66.39999 | -42.66644 | 13170 ft | 94 kts | 108° |
| 2026-04-23 10:31 | 66.39750 | -42.65146 | 13187 ft | 93 kts | 110° |
| 2026-04-23 10:31 | 66.39487 | -42.63669 | 13192 ft | 93 kts | 111° |
| 2026-04-23 10:31 | 66.39209 | -42.62214 | 13204 ft | 93 kts | 113° |
| 2026-04-23 10:32 | 66.38916 | -42.60784 | 13201 ft | 92 kts | 115° |
| 2026-04-23 10:32 | 66.38605 | -42.59371 | 13187 ft | 95 kts | 117° |
| 2026-04-23 10:32 | 66.38272 | -42.57919 | 13158 ft | 98 kts | 117° |
| 2026-04-23 10:32 | 66.37941 | -42.56409 | 13141 ft | 100 kts | 116° |
| 2026-04-23 10:33 | 66.37616 | -42.54857 | 13131 ft | 102 kts | 115° |
| 2026-04-23 10:33 | 66.37297 | -42.53263 | 13108 ft | 105 kts | 114° |
| 2026-04-23 10:33 | 66.36977 | -42.51596 | 13066 ft | 108 kts | 113° |
| 2026-04-23 10:33 | 66.36659 | -42.49866 | 13023 ft | 111 kts | 112° |
| 2026-04-23 10:34 | 66.36343 | -42.48095 | 12978 ft | 113 kts | 112° |
| 2026-04-23 10:34 | 66.36033 | -42.46288 | 12943 ft | 114 kts | 111° |
| 2026-04-23 10:34 | 66.35729 | -42.44457 | 12908 ft | 115 kts | 110° |
| 2026-04-23 10:34 | 66.35431 | -42.42606 | 12876 ft | 115 kts | 109° |
| 2026-04-23 10:35 | 66.35142 | -42.40735 | 12847 ft | 116 kts | 109° |
| 2026-04-23 10:35 | 66.34862 | -42.38854 | 12821 ft | 116 kts | 108° |
| 2026-04-23 10:35 | 66.34591 | -42.36958 | 12797 ft | 116 kts | 107° |
| 2026-04-23 10:35 | 66.34418 | -42.35696 | 12776 ft | 116 kts | 106° |
| 2026-04-23 10:36 | 66.34085 | -42.33155 | 12748 ft | 117 kts | 105° |
| 2026-04-23 10:36 | 66.33847 | -42.31225 | 12734 ft | 117 kts | 104° |
| 2026-04-23 10:36 | 66.33621 | -42.29282 | 12711 ft | 117 kts | 103° |
| 2026-04-23 10:36 | 66.33407 | -42.27329 | 12695 ft | 117 kts | 102° |
| 2026-04-23 10:37 | 66.33202 | -42.25369 | 12680 ft | 117 kts | 102° |
| 2026-04-23 10:37 | 66.33062 | -42.24045 | 12668 ft | 117 kts | 102° |
| 2026-04-23 10:37 | 66.32848 | -42.22084 | 12651 ft | 117 kts | 102° |
| 2026-04-23 10:37 | 66.32627 | -42.20131 | 12632 ft | 117 kts | 103° |
| 2026-04-23 10:38 | 66.32404 | -42.18209 | 12614 ft | 117 kts | 103° |
| 2026-04-23 10:38 | 66.32171 | -42.16270 | 12599 ft | 117 kts | 104° |
| 2026-04-23 10:38 | 66.31932 | -42.14340 | 12586 ft | 117 kts | 105° |
| 2026-04-23 10:38 | 66.31686 | -42.12417 | 12572 ft | 116 kts | 105° |
| 2026-04-23 10:39 | 66.31435 | -42.10507 | 12543 ft | 116 kts | 106° |
| 2026-04-23 10:39 | 66.31177 | -42.08606 | 12533 ft | 116 kts | 106° |
| 2026-04-23 10:39 | 66.30913 | -42.06715 | 12526 ft | 116 kts | 107° |
| 2026-04-23 10:39 | 66.30644 | -42.04836 | 12517 ft | 115 kts | 107° |
| 2026-04-23 10:40 | 66.30368 | -42.02965 | 12508 ft | 115 kts | 108° |
| 2026-04-23 10:40 | 66.30086 | -42.01104 | 12504 ft | 115 kts | 108° |
| 2026-04-23 10:40 | 66.29798 | -41.99254 | 12501 ft | 115 kts | 109° |
| 2026-04-23 10:40 | 66.29504 | -41.97413 | 12498 ft | 114 kts | 109° |
| 2026-04-23 10:41 | 66.29205 | -41.95585 | 12486 ft | 114 kts | 110° |
| 2026-04-23 10:41 | 66.28899 | -41.93767 | 12480 ft | 114 kts | 110° |
| 2026-04-23 10:41 | 66.28587 | -41.91965 | 12472 ft | 113 kts | 111° |
| 2026-04-23 10:41 | 66.28270 | -41.90184 | 12465 ft | 113 kts | 113° |
| 2026-04-23 10:42 | 66.27961 | -41.88402 | 12468 ft | 112 kts | 110° |
| 2026-04-23 10:42 | 66.27667 | -41.86611 | 12465 ft | 112 kts | 109° |
| 2026-04-23 10:42 | 66.27391 | -41.84819 | 12461 ft | 111 kts | 107° |
| 2026-04-23 10:42 | 66.27133 | -41.83017 | 12465 ft | 111 kts | 109° |
| 2026-04-23 10:43 | 66.26893 | -41.81196 | 12466 ft | 111 kts | 106° |
| 2026-04-23 10:43 | 66.26671 | -41.79357 | 12468 ft | 112 kts | 105° |
| 2026-04-23 10:43 | 66.26469 | -41.77487 | 12473 ft | 113 kts | 103° |
| 2026-04-23 10:43 | 66.26275 | -41.75601 | 12457 ft | 113 kts | 102° |
| 2026-04-23 10:44 | 66.26074 | -41.73756 | 12455 ft | 112 kts | 105° |
| 2026-04-23 10:44 | 66.25849 | -41.71901 | 12449 ft | 112 kts | 105° |
| 2026-04-23 10:44 | 66.25582 | -41.70102 | 12451 ft | 111 kts | 111° |
| 2026-04-23 10:44 | 66.25275 | -41.68357 | 12453 ft | 110 kts | 114° |
| 2026-04-23 10:45 | 66.24971 | -41.66619 | 12465 ft | 109 kts | 110° |
| 2026-04-23 10:45 | 66.24683 | -41.64878 | 12475 ft | 109 kts | 111° |
| 2026-04-23 10:45 | 66.24410 | -41.63122 | 12486 ft | 109 kts | 109° |
| 2026-04-23 10:45 | 66.24154 | -41.61348 | 12496 ft | 110 kts | 109° |
| 2026-04-23 10:46 | 66.23913 | -41.59558 | 12506 ft | 109 kts | 104° |
| 2026-04-23 10:46 | 66.23691 | -41.57758 | 12515 ft | 109 kts | 104° |
| 2026-04-23 10:46 | 66.23486 | -41.55947 | 12524 ft | 109 kts | 102° |
| 2026-04-23 10:46 | 66.23290 | -41.54141 | 12532 ft | 108 kts | 101° |
| 2026-04-23 10:47 | 66.23091 | -41.52344 | 12534 ft | 109 kts | 105° |
| 2026-04-23 10:47 | 66.22875 | -41.50549 | 12540 ft | 108 kts | 104° |
| 2026-04-23 10:47 | 66.22644 | -41.48770 | 12544 ft | 109 kts | 108° |
| 2026-04-23 10:47 | 66.22396 | -41.46999 | 12547 ft | 109 kts | 109° |
| 2026-04-23 10:48 | 66.22132 | -41.45247 | 12552 ft | 108 kts | 109° |
| 2026-04-23 10:48 | 66.21851 | -41.43522 | 12557 ft | 108 kts | 111° |
| 2026-04-23 10:48 | 66.21554 | -41.41821 | 12560 ft | 107 kts | 112° |
| 2026-04-23 10:48 | 66.21242 | -41.40154 | 12560 ft | 106 kts | 114° |
| 2026-04-23 10:49 | 66.20914 | -41.38525 | 12543 ft | 105 kts | 115° |
| 2026-04-23 10:49 | 66.20571 | -41.36934 | 12547 ft | 104 kts | 118° |
| 2026-04-23 10:49 | 66.20217 | -41.35370 | 12556 ft | 104 kts | 118° |
| 2026-04-23 10:49 | 66.19886 | -41.33782 | 12567 ft | 104 kts | 115° |
| 2026-04-23 10:50 | 66.19585 | -41.32160 | 12589 ft | 104 kts | 114° |
| 2026-04-23 10:50 | 66.19312 | -41.30490 | 12606 ft | 105 kts | 111° |
| 2026-04-23 10:50 | 66.19070 | -41.28779 | 12623 ft | 105 kts | 107° |
| 2026-04-23 10:50 | 66.18861 | -41.27044 | 12641 ft | 105 kts | 104° |
| 2026-04-23 10:51 | 66.18672 | -41.25283 | 12651 ft | 106 kts | 101° |
| 2026-04-23 10:51 | 66.18499 | -41.23514 | 12667 ft | 106 kts | 100° |
| 2026-04-23 10:51 | 66.18340 | -41.21735 | 12678 ft | 106 kts | 100° |
| 2026-04-23 10:51 | 66.18187 | -41.19943 | 12686 ft | 107 kts | 99° |
| 2026-04-23 10:52 | 66.18030 | -41.18151 | 12695 ft | 107 kts | 100° |
| 2026-04-23 10:52 | 66.17862 | -41.16356 | 12698 ft | 107 kts | 103° |
| 2026-04-23 10:52 | 66.17682 | -41.14562 | 12711 ft | 107 kts | 102° |
| 2026-04-23 10:52 | 66.17492 | -41.12783 | 12731 ft | 107 kts | 105° |
| 2026-04-23 10:53 | 66.17290 | -41.11018 | 12734 ft | 106 kts | 103° |
| 2026-04-23 10:53 | 66.17078 | -41.09277 | 12742 ft | 105 kts | 104° |
| 2026-04-23 10:53 | 66.16856 | -41.07563 | 12745 ft | 105 kts | 106° |
| 2026-04-23 10:53 | 66.16624 | -41.05861 | 12751 ft | 104 kts | 107° |
| 2026-04-23 10:54 | 66.16383 | -41.04199 | 12752 ft | 104 kts | 110° |
| 2026-04-23 10:54 | 66.16129 | -41.02527 | 12759 ft | 104 kts | 111° |
| 2026-04-23 10:54 | 66.15869 | -41.00863 | 12757 ft | 104 kts | 110° |
| 2026-04-23 10:54 | 66.15604 | -40.99205 | 12766 ft | 103 kts | 107° |
| 2026-04-23 10:55 | 66.15335 | -40.97559 | 12783 ft | 103 kts | 110° |
| 2026-04-23 10:55 | 66.15061 | -40.95918 | 12803 ft | 103 kts | 109° |
| 2026-04-23 10:55 | 66.14783 | -40.94292 | 12821 ft | 102 kts | 109° |
| 2026-04-23 10:55 | 66.14503 | -40.92689 | 12850 ft | 101 kts | 110° |
| 2026-04-23 10:56 | 66.14219 | -40.91088 | 12860 ft | 102 kts | 110° |
| 2026-04-23 10:56 | 66.13929 | -40.89496 | 12877 ft | 101 kts | 111° |
| 2026-04-23 10:56 | 66.13635 | -40.87913 | 12893 ft | 101 kts | 112° |
| 2026-04-23 10:56 | 66.13337 | -40.86332 | 12905 ft | 102 kts | 114° |
| 2026-04-23 10:57 | 66.13042 | -40.84738 | 12918 ft | 102 kts | 111° |
| 2026-04-23 10:57 | 66.12763 | -40.83140 | 12940 ft | 101 kts | 108° |
| 2026-04-23 10:57 | 66.12497 | -40.81534 | 12954 ft | 101 kts | 109° |
| 2026-04-23 10:57 | 66.12241 | -40.79920 | 12973 ft | 101 kts | 106° |
| 2026-04-23 10:58 | 66.11996 | -40.78305 | 12990 ft | 100 kts | 106° |
| 2026-04-23 10:58 | 66.11763 | -40.76685 | 13008 ft | 100 kts | 105° |
| 2026-04-23 10:58 | 66.11541 | -40.75050 | 13023 ft | 101 kts | 104° |
| 2026-04-23 10:58 | 66.11330 | -40.73407 | 13035 ft | 101 kts | 103° |
| 2026-04-23 10:59 | 66.11129 | -40.71751 | 13050 ft | 101 kts | 103° |
| 2026-04-23 10:59 | 66.10941 | -40.70076 | 13065 ft | 102 kts | 101° |
| 2026-04-23 10:59 | 66.10765 | -40.68391 | 13082 ft | 101 kts | 99° |
| 2026-04-23 10:59 | 66.10603 | -40.66699 | 13098 ft | 101 kts | 98° |
| 2026-04-23 11:00 | 66.10444 | -40.65010 | 13109 ft | 101 kts | 98° |
| 2026-04-23 11:00 | 66.10275 | -40.63364 | 13124 ft | 101 kts | 102° |
| 2026-04-23 11:00 | 66.10083 | -40.61704 | 13127 ft | 101 kts | 103° |
| 2026-04-23 11:00 | 66.09880 | -40.60055 | 13132 ft | 100 kts | 104° |
| 2026-04-23 11:01 | 66.09667 | -40.58415 | 13141 ft | 101 kts | 105° |
| 2026-04-23 11:01 | 66.09443 | -40.56778 | 13150 ft | 101 kts | 106° |
| 2026-04-23 11:01 | 66.09215 | -40.55151 | 13168 ft | 100 kts | 104° |
| 2026-04-23 11:01 | 66.08998 | -40.53529 | 13182 ft | 100 kts | 105° |
| 2026-04-23 11:02 | 66.08789 | -40.51906 | 13202 ft | 99 kts | 103° |
| 2026-04-23 11:02 | 66.08592 | -40.50284 | 13225 ft | 98 kts | 101° |
| 2026-04-23 11:02 | 66.08402 | -40.48667 | 13232 ft | 98 kts | 101° |
| 2026-04-23 11:02 | 66.08215 | -40.47045 | 13240 ft | 98 kts | 100° |
| 2026-04-23 11:03 | 66.08032 | -40.45423 | 13251 ft | 98 kts | 102° |
| 2026-04-23 11:03 | 66.07853 | -40.43788 | 13256 ft | 99 kts | 102° |
| 2026-04-23 11:03 | 66.07678 | -40.42140 | 13258 ft | 99 kts | 101° |
| 2026-04-23 11:03 | 66.07505 | -40.40498 | 13263 ft | 99 kts | 102° |
| 2026-04-23 11:04 | 66.07325 | -40.38860 | 13270 ft | 99 kts | 100° |
| 2026-04-23 11:04 | 66.07141 | -40.37236 | 13286 ft | 98 kts | 101° |
| 2026-04-23 11:04 | 66.06952 | -40.35628 | 13300 ft | 98 kts | 101° |
| 2026-04-23 11:04 | 66.06755 | -40.34026 | 13310 ft | 98 kts | 102° |
| 2026-04-23 11:05 | 66.06550 | -40.32433 | 13323 ft | 97 kts | 104° |
| 2026-04-23 11:05 | 66.06338 | -40.30848 | 13337 ft | 98 kts | 105° |
| 2026-04-23 11:05 | 66.06117 | -40.29267 | 13349 ft | 98 kts | 107° |
| 2026-04-23 11:05 | 66.05886 | -40.27694 | 13360 ft | 97 kts | 105° |
| 2026-04-23 11:06 | 66.05400 | -40.24608 | 13391 ft | 96 kts | 107° |
| 2026-04-23 11:06 | 66.05144 | -40.23101 | 13410 ft | 95 kts | 108° |
| 2026-04-23 11:06 | 66.04885 | -40.21637 | 13425 ft | 94 kts | 110° |
| 2026-04-23 11:07 | 66.04614 | -40.20147 | 13437 ft | 94 kts | 111° |
| 2026-04-23 11:07 | 66.04343 | -40.18705 | 13450 ft | 94 kts | 110° |
| 2026-04-23 11:07 | 66.04065 | -40.17259 | 13458 ft | 94 kts | 114° |
| 2026-04-23 11:07 | 66.03781 | -40.15814 | 13475 ft | 94 kts | 111° |
| 2026-04-23 11:08 | 66.03508 | -40.14355 | 13490 ft | 94 kts | 112° |
| 2026-04-23 11:08 | 66.03248 | -40.12876 | 13504 ft | 94 kts | 108° |
| 2026-04-23 11:08 | 66.03001 | -40.11361 | 13498 ft | 94 kts | 108° |
| 2026-04-23 11:08 | 66.02779 | -40.09864 | 13507 ft | 94 kts | 106° |
| 2026-04-23 11:09 | 66.02575 | -40.08332 | 13520 ft | 94 kts | 102° |
| 2026-04-23 11:09 | 66.02394 | -40.06790 | 13539 ft | 94 kts | 101° |
| 2026-04-23 11:09 | 66.02237 | -40.05225 | 13540 ft | 95 kts | 99° |
| 2026-04-23 11:09 | 66.02086 | -40.03636 | 13534 ft | 96 kts | 99° |
| 2026-04-23 11:10 | 66.01931 | -40.02019 | 13535 ft | 98 kts | 101° |
| 2026-04-23 11:10 | 66.01763 | -40.00381 | 13533 ft | 99 kts | 103° |
| 2026-04-23 11:10 | 66.01567 | -39.98757 | 13535 ft | 99 kts | 105° |
| 2026-04-23 11:10 | 66.01342 | -39.97159 | 13532 ft | 99 kts | 106° |
| 2026-04-23 11:11 | 66.01088 | -39.95597 | 13531 ft | 98 kts | 109° |
| 2026-04-23 11:11 | 66.00805 | -39.94083 | 13532 ft | 97 kts | 112° |
| 2026-04-23 11:11 | 66.00491 | -39.92622 | 13521 ft | 96 kts | 118° |
| 2026-04-23 11:11 | 66.00155 | -39.91199 | 13534 ft | 96 kts | 116° |
| 2026-04-23 11:12 | 65.99831 | -39.89776 | 13539 ft | 95 kts | 117° |
| 2026-04-23 11:12 | 65.99523 | -39.88338 | 13537 ft | 95 kts | 115° |
| 2026-04-23 11:12 | 65.99230 | -39.86881 | 13554 ft | 96 kts | 115° |
| 2026-04-23 11:12 | 65.98952 | -39.85393 | 13567 ft | 96 kts | 110° |
| 2026-04-23 11:13 | 65.98703 | -39.83878 | 13584 ft | 96 kts | 108° |
| 2026-04-23 11:13 | 65.98486 | -39.82334 | 13599 ft | 96 kts | 104° |
| 2026-04-23 11:13 | 65.98297 | -39.80761 | 13621 ft | 96 kts | 99° |
| 2026-04-23 11:13 | 65.98133 | -39.79178 | 13638 ft | 96 kts | 100° |
| 2026-04-23 11:14 | 65.97950 | -39.77595 | 13629 ft | 97 kts | 104° |
| 2026-04-23 11:14 | 65.97737 | -39.76042 | 13630 ft | 97 kts | 106° |
| 2026-04-23 11:14 | 65.97490 | -39.74494 | 13626 ft | 98 kts | 111° |
| 2026-04-23 11:14 | 65.97208 | -39.72977 | 13633 ft | 98 kts | 113° |
| 2026-04-23 11:15 | 65.96892 | -39.71511 | 13641 ft | 97 kts | 120° |
| 2026-04-23 11:15 | 65.96542 | -39.70105 | 13651 ft | 96 kts | 119° |
| 2026-04-23 11:15 | 65.96187 | -39.68736 | 13668 ft | 95 kts | 129° |
| 2026-04-23 11:15 | 65.95850 | -39.67346 | 13698 ft | 95 kts | 111° |
| 2026-04-23 11:16 | 65.95576 | -39.65865 | 13703 ft | 96 kts | 108° |
| 2026-04-23 11:16 | 65.95339 | -39.64329 | 13704 ft | 97 kts | 104° |
| 2026-04-23 11:16 | 65.95143 | -39.62744 | 13704 ft | 98 kts | 102° |
| 2026-04-23 11:16 | 65.94979 | -39.61108 | 13697 ft | 99 kts | 99° |
| 2026-04-23 11:17 | 65.94816 | -39.59453 | 13694 ft | 101 kts | 102° |
| 2026-04-23 11:17 | 65.94648 | -39.57771 | 13681 ft | 102 kts | 102° |
| 2026-04-23 11:17 | 65.94474 | -39.56076 | 13677 ft | 103 kts | 100° |
| 2026-04-23 11:17 | 65.94297 | -39.54385 | 13676 ft | 102 kts | 102° |
| 2026-04-23 11:18 | 65.94097 | -39.52709 | 13669 ft | 102 kts | 104° |
| 2026-04-23 11:18 | 65.93847 | -39.51084 | 13664 ft | 102 kts | 108° |
| 2026-04-23 11:18 | 65.93601 | -39.49470 | 13670 ft | 101 kts | 107° |
| 2026-04-23 11:18 | 65.93376 | -39.47843 | 13675 ft | 101 kts | 104° |
| 2026-04-23 11:19 | 65.93177 | -39.46223 | 13681 ft | 101 kts | 102° |
| 2026-04-23 11:19 | 65.92987 | -39.44569 | 13680 ft | 101 kts | 104° |
| 2026-04-23 11:19 | 65.92799 | -39.42901 | 13682 ft | 102 kts | 102° |
| 2026-04-23 11:19 | 65.92613 | -39.41231 | 13687 ft | 101 kts | 102° |
| 2026-04-23 11:20 | 65.92430 | -39.39566 | 13692 ft | 102 kts | 103° |
| 2026-04-23 11:20 | 65.92237 | -39.37908 | 13701 ft | 101 kts | 102° |
| 2026-04-23 11:20 | 65.92026 | -39.36281 | 13706 ft | 100 kts | 105° |
| 2026-04-23 11:20 | 65.91794 | -39.34675 | 13708 ft | 100 kts | 107° |
| 2026-04-23 11:21 | 65.91540 | -39.33092 | 13713 ft | 100 kts | 109° |
| 2026-04-23 11:21 | 65.91265 | -39.31538 | 13719 ft | 100 kts | 114° |
| 2026-04-23 11:21 | 65.90965 | -39.30015 | 13722 ft | 99 kts | 116° |
| 2026-04-23 11:21 | 65.90642 | -39.28528 | 13723 ft | 99 kts | 120° |
| 2026-04-23 11:22 | 65.90297 | -39.27083 | 13728 ft | 98 kts | 117° |
| 2026-04-23 11:22 | 65.89945 | -39.25672 | 13737 ft | 97 kts | 121° |
| 2026-04-23 11:22 | 65.89586 | -39.24286 | 13742 ft | 96 kts | 121° |
| 2026-04-23 11:22 | 65.89223 | -39.22924 | 13740 ft | 95 kts | 120° |
| 2026-04-23 11:23 | 65.88861 | -39.21581 | 13705 ft | 94 kts | 117° |
| 2026-04-23 11:23 | 65.88500 | -39.20263 | 13716 ft | 93 kts | 117° |
| 2026-04-23 11:23 | 65.88141 | -39.18956 | 13724 ft | 92 kts | 118° |
| 2026-04-23 11:23 | 65.87790 | -39.17646 | 13733 ft | 92 kts | 116° |
| 2026-04-23 11:24 | 65.87450 | -39.16329 | 13749 ft | 91 kts | 115° |
| 2026-04-23 11:24 | 65.87121 | -39.15000 | 13754 ft | 91 kts | 115° |
| 2026-04-23 11:24 | 65.86805 | -39.13652 | 13764 ft | 92 kts | 113° |
| 2026-04-23 11:24 | 65.86500 | -39.12283 | 13774 ft | 92 kts | 110° |
| 2026-04-23 11:25 | 65.86210 | -39.10900 | 13783 ft | 91 kts | 109° |
| 2026-04-23 11:25 | 65.85939 | -39.09523 | 13776 ft | 91 kts | 108° |
| 2026-04-23 11:25 | 65.85681 | -39.08106 | 13779 ft | 91 kts | 105° |
| 2026-04-23 11:25 | 65.85442 | -39.06675 | 13776 ft | 91 kts | 104° |
| 2026-04-23 11:26 | 65.85222 | -39.05223 | 13775 ft | 91 kts | 101° |
| 2026-04-23 11:26 | 65.85025 | -39.03755 | 13777 ft | 91 kts | 100° |
| 2026-04-23 11:26 | 65.84851 | -39.02268 | 13780 ft | 91 kts | 97° |
| 2026-04-23 11:26 | 65.84701 | -39.00760 | 13781 ft | 92 kts | 95° |
| 2026-04-23 11:27 | 65.84579 | -38.99229 | 13783 ft | 92 kts | 92° |
| 2026-04-23 11:27 | 65.84443 | -38.97688 | 13773 ft | 93 kts | 97° |
| 2026-04-23 11:27 | 65.84252 | -38.96163 | 13756 ft | 95 kts | 101° |
| 2026-04-23 11:27 | 65.84032 | -38.94633 | 13735 ft | 96 kts | 103° |
| 2026-04-23 11:28 | 65.83789 | -38.93113 | 13718 ft | 96 kts | 105° |
| 2026-04-23 11:28 | 65.83522 | -38.91607 | 13701 ft | 97 kts | 107° |
| 2026-04-23 11:28 | 65.83231 | -38.90122 | 13683 ft | 97 kts | 111° |
| 2026-04-23 11:28 | 65.83023 | -38.89152 | 13675 ft | 97 kts | 112° |
| 2026-04-23 11:29 | 65.82690 | -38.87723 | 13657 ft | 97 kts | 115° |
| 2026-04-23 11:29 | 65.82329 | -38.86330 | 13653 ft | 97 kts | 117° |
| 2026-04-23 11:29 | 65.81941 | -38.84985 | 13646 ft | 97 kts | 121° |
| 2026-04-23 11:29 | 65.81525 | -38.83694 | 13642 ft | 97 kts | 125° |
| 2026-04-23 11:30 | 65.81080 | -38.82467 | 13643 ft | 96 kts | 127° |
| 2026-04-23 11:30 | 65.80611 | -38.81314 | 13645 ft | 95 kts | 131° |
| 2026-04-23 11:30 | 65.80125 | -38.80224 | 13644 ft | 95 kts | 134° |
| 2026-04-23 11:30 | 65.79630 | -38.79170 | 13650 ft | 94 kts | 133° |
| 2026-04-23 11:31 | 65.79137 | -38.78135 | 13660 ft | 93 kts | 134° |
| 2026-04-23 11:31 | 65.78646 | -38.77112 | 13652 ft | 93 kts | 136° |
| 2026-04-23 11:31 | 65.78147 | -38.76101 | 13443 ft | 94 kts | 137° |
| 2026-04-23 11:31 | 65.77630 | -38.75120 | 13235 ft | 95 kts | 139° |
| 2026-04-23 11:32 | 65.77097 | -38.74175 | 13035 ft | 95 kts | 141° |
| 2026-04-23 11:32 | 65.76547 | -38.73269 | 12845 ft | 95 kts | 142° |
| 2026-04-23 11:32 | 65.75985 | -38.72407 | 12663 ft | 96 kts | 144° |
| 2026-04-23 11:32 | 65.75408 | -38.71589 | 12480 ft | 96 kts | 148° |
| 2026-04-23 11:33 | 65.74818 | -38.70818 | 12315 ft | 96 kts | 149° |
| 2026-04-23 11:33 | 65.74217 | -38.70097 | 12143 ft | 96 kts | 150° |
| 2026-04-23 11:33 | 65.73604 | -38.69427 | 11978 ft | 97 kts | 153° |
| 2026-04-23 11:33 | 65.72981 | -38.68808 | 11808 ft | 97 kts | 155° |
| 2026-04-23 11:34 | 65.72347 | -38.68242 | 11655 ft | 97 kts | 158° |
| 2026-04-23 11:34 | 65.71704 | -38.67732 | 11507 ft | 97 kts | 159° |
| 2026-04-23 11:34 | 65.71052 | -38.67279 | 11350 ft | 98 kts | 163° |
| 2026-04-23 11:34 | 65.70384 | -38.66907 | 11124 ft | 99 kts | 167° |
| 2026-04-23 11:35 | 65.69703 | -38.66636 | 10906 ft | 99 kts | 169° |
| 2026-04-23 11:35 | 65.69014 | -38.66470 | 10703 ft | 100 kts | 173° |
| 2026-04-23 11:35 | 65.68328 | -38.66388 | 10502 ft | 100 kts | 173° |
| 2026-04-23 11:35 | 65.67639 | -38.66178 | 10309 ft | 100 kts | 166° |
| 2026-04-23 11:36 | 65.66970 | -38.65777 | 10121 ft | 99 kts | 158° |
| 2026-04-23 11:36 | 65.66332 | -38.65187 | 9918 ft | 98 kts | 150° |
| 2026-04-23 11:36 | 65.65738 | -38.64412 | 9717 ft | 96 kts | 142° |
| 2026-04-23 11:36 | 65.65197 | -38.63464 | 9516 ft | 96 kts | 134° |
| 2026-04-23 11:37 | 65.64685 | -38.62390 | 9294 ft | 98 kts | 131° |
| 2026-04-23 11:37 | 65.64182 | -38.61250 | 9082 ft | 100 kts | 130° |
| 2026-04-23 11:37 | 65.63689 | -38.60059 | 8878 ft | 100 kts | 128° |
| 2026-04-23 11:37 | 65.63211 | -38.58825 | 8667 ft | 101 kts | 126° |
| 2026-04-23 11:38 | 65.62748 | -38.57552 | 8489 ft | 101 kts | 124° |
| 2026-04-23 11:38 | 65.62304 | -38.56243 | 8298 ft | 101 kts | 122° |
| 2026-04-23 11:38 | 65.61880 | -38.54899 | 8129 ft | 100 kts | 120° |
| 2026-04-23 11:38 | 65.61471 | -38.53533 | 7958 ft | 100 kts | 119° |
| 2026-04-23 11:39 | 65.61070 | -38.52152 | 7805 ft | 100 kts | 118° |
| 2026-04-23 11:39 | 65.60679 | -38.50757 | 7631 ft | 100 kts | 117° |
| 2026-04-23 11:39 | 65.60299 | -38.49348 | 7484 ft | 100 kts | 116° |
| 2026-04-23 11:39 | 65.59930 | -38.47928 | 7326 ft | 100 kts | 115° |
| 2026-04-23 11:40 | 65.59574 | -38.46495 | 7178 ft | 99 kts | 114° |
| 2026-04-23 11:40 | 65.59234 | -38.45067 | 7032 ft | 99 kts | 112° |
| 2026-04-23 11:40 | 65.58900 | -38.43588 | 6882 ft | 99 kts | 111° |
| 2026-04-23 11:40 | 65.58610 | -38.42104 | 6734 ft | 101 kts | 105° |
| 2026-04-23 11:41 | 65.58364 | -38.40385 | 6417 ft | 115 kts | 100° |
| 2026-04-23 11:41 | 65.58161 | -38.38423 | 6079 ft | 125 kts | 96° |
| 2026-04-23 11:41 | 65.58000 | -38.36295 | 5756 ft | 131 kts | 93° |
| 2026-04-23 11:41 | 65.57884 | -38.34168 | 5553 ft | 125 kts | 90° |
| 2026-04-23 11:42 | 65.57815 | -38.32124 | 5383 ft | 120 kts | 86° |
| 2026-04-23 11:42 | 65.57793 | -38.30145 | 5210 ft | 116 kts | 82° |
| 2026-04-23 11:42 | 65.57819 | -38.28215 | 5048 ft | 114 kts | 78° |
| 2026-04-23 11:42 | 65.57891 | -38.26336 | 4882 ft | 111 kts | 75° |
| 2026-04-23 11:43 | 65.58010 | -38.24502 | 4719 ft | 110 kts | 71° |
| 2026-04-23 11:43 | 65.58174 | -38.22711 | 4560 ft | 108 kts | 68° |
| 2026-04-23 11:43 | 65.58389 | -38.20981 | 4406 ft | 107 kts | 62° |
| 2026-04-23 11:43 | 65.58673 | -38.19337 | 4256 ft | 105 kts | 56° |
| 2026-04-23 11:44 | 65.58995 | -38.17748 | 4108 ft | 106 kts | 57° |
| 2026-04-23 11:44 | 65.59236 | -38.16047 | 3944 ft | 108 kts | 69° |
| 2026-04-23 11:44 | 65.59347 | -38.14236 | 3811 ft | 110 kts | 77° |
| 2026-04-23 11:44 | 65.59342 | -38.12359 | 3775 ft | 113 kts | 85° |
| 2026-04-23 11:45 | 65.59240 | -38.10463 | 3789 ft | 113 kts | 91° |
| 2026-04-23 11:45 | 65.59057 | -38.08640 | 3851 ft | 110 kts | 95° |
| 2026-04-23 11:45 | 65.58875 | -38.06886 | 3923 ft | 106 kts | 94° |
| 2026-04-23 11:45 | 65.58706 | -38.05173 | 3982 ft | 104 kts | 93° |
| 2026-04-23 11:46 | 65.58550 | -38.03491 | 4060 ft | 102 kts | 92° |
| 2026-04-23 11:46 | 65.58405 | -38.01814 | 4122 ft | 102 kts | 91° |
| 2026-04-23 11:46 | 65.58273 | -38.00137 | 4185 ft | 102 kts | 91° |
| 2026-04-23 11:46 | 65.58152 | -37.98458 | 4247 ft | 101 kts | 90° |
| 2026-04-23 11:47 | 65.58042 | -37.96780 | 4315 ft | 101 kts | 88° |
| 2026-04-23 11:47 | 65.57944 | -37.95128 | 4383 ft | 101 kts | 88° |
| 2026-04-23 11:47 | 65.57855 | -37.93452 | 4450 ft | 100 kts | 86° |
| 2026-04-23 11:47 | 65.57777 | -37.91785 | 4516 ft | 100 kts | 85° |
| 2026-04-23 11:48 | 65.57708 | -37.90098 | 4588 ft | 99 kts | 85° |
| 2026-04-23 11:48 | 65.57650 | -37.88460 | 4658 ft | 99 kts | 84° |
| 2026-04-23 11:48 | 65.57604 | -37.86804 | 4731 ft | 98 kts | 83° |
| 2026-04-23 11:48 | 65.57580 | -37.85151 | 4789 ft | 99 kts | 81° |
| 2026-04-23 11:49 | 65.57583 | -37.83457 | 4811 ft | 102 kts | 79° |
| 2026-04-23 11:49 | 65.57611 | -37.81723 | 4830 ft | 104 kts | 77° |
| 2026-04-23 11:49 | 65.57661 | -37.79966 | 4846 ft | 105 kts | 76° |
| 2026-04-23 11:49 | 65.57732 | -37.78195 | 4870 ft | 106 kts | 74° |
| 2026-04-23 11:50 | 65.57821 | -37.76424 | 4888 ft | 106 kts | 73° |
| 2026-04-23 11:50 | 65.57928 | -37.74655 | 4911 ft | 106 kts | 72° |
| 2026-04-23 11:50 | 65.58051 | -37.72892 | 4915 ft | 106 kts | 71° |
| 2026-04-23 11:50 | 65.58190 | -37.71137 | 4939 ft | 106 kts | 69° |
| 2026-04-23 11:51 | 65.58331 | -37.69360 | 4835 ft | 110 kts | 74° |
| 2026-04-23 11:51 | 65.58433 | -37.67472 | 4588 ft | 116 kts | 79° |
| 2026-04-23 11:51 | 65.58464 | -37.65482 | 4248 ft | 121 kts | 85° |
| 2026-04-23 11:51 | 65.58412 | -37.63425 | 3907 ft | 124 kts | 90° |
| 2026-04-23 11:52 | 65.58288 | -37.61334 | 3550 ft | 128 kts | 92° |
| 2026-04-23 11:52 | 65.58326 | -37.59165 | 3110 ft | 132 kts | 72° |
| 2026-04-23 11:52 | 65.58688 | -37.57124 | 2666 ft | 133 kts | 50° |
| 2026-04-23 11:52 | 65.59351 | -37.55625 | 2267 ft | 133 kts | 27° |
| 2026-04-23 11:53 | 65.60209 | -37.54833 | 1864 ft | 132 kts | 7° |
| 2026-04-23 11:53 | 65.61122 | -37.54799 | 1444 ft | 132 kts | 348° |
| 2026-04-23 11:53 | 65.61987 | -37.55493 | 1054 ft | 131 kts | 325° |
| 2026-04-23 11:53 | 65.62544 | -37.57087 | 904 ft | 121 kts | 285° |
| 2026-04-23 11:54 | 65.62544 | -37.59014 | 794 ft | 113 kts | 245° |
| 2026-04-23 11:54 | 65.62127 | -37.60580 | 679 ft | 108 kts | 221° |
| 2026-04-23 11:54 | 65.61556 | -37.61464 | 636 ft | 88 kts | 194° |
| 2026-04-23 11:54 | 65.61017 | -37.61480 | 589 ft | 71 kts | 154° |
| 2026-04-23 11:55 | 65.60795 | -37.60739 | 543 ft | 44 kts | 79° |
| 2026-04-23 11:55 | 65.61012 | -37.60856 | 473 ft | 48 kts | 294° |
| 2026-04-23 11:55 | 65.61137 | -37.61661 | 479 ft | 54 kts | 276° |
| 2026-04-23 11:55 | 65.61218 | -37.62643 | 382 ft | 66 kts | 269° |
| 2026-04-23 11:56 | 65.61287 | -37.63751 | 341 ft | 64 kts | 277° |
| 2026-04-23 11:56 | 65.61548 | -37.64539 | 334 ft | 60 kts | 329° |
| 2026-04-23 11:56 | 65.61823 | -37.65006 | 357 ft | 35 kts | 336° |
| 2026-04-23 11:56 | 65.61924 | -37.65173 | 265 ft | 23 kts | 63° |
| 2026-04-23 11:57 | 65.61977 | -37.64920 | 178 ft | 8 kts | 104° |
| 2026-04-23 11:57 | 65.61987 | -37.64794 | 179 ft | 7 kts | 54° |
| 2026-04-23 11:57 | 65.61978 | -37.64744 | 180 ft | 3 kts | 326° |
| 2026-04-23 11:57 | 65.61978 | -37.64808 | 189 ft | 6 kts | 172° |
| 2026-04-23 11:58 | 65.61954 | -37.64744 | 159 ft | 6 kts | 123° |
| 2026-04-23 11:58 | 65.61900 | -37.64455 | 266 ft | 47 kts | 101° |
| 2026-04-23 11:58 | 65.61696 | -37.63331 | 321 ft | 93 kts | 106° |
| 2026-04-23 11:58 | 65.61419 | -37.61787 | 520 ft | 94 kts | 105° |
| 2026-04-23 11:59 | 65.61192 | -37.60465 | 849 ft | 85 kts | 105° |
| 2026-04-23 11:59 | 65.60960 | -37.58987 | 781 ft | 102 kts | 104° |
| 2026-04-23 11:59 | 65.60728 | -37.57268 | 685 ft | 112 kts | 103° |
| 2026-04-23 11:59 | 65.60508 | -37.55425 | 634 ft | 115 kts | 102° |
| 2026-04-23 12:00 | 65.60221 | -37.53626 | 601 ft | 114 kts | 110° |
| 2026-04-23 12:00 | 65.59932 | -37.51855 | 593 ft | 113 kts | 105° |
| 2026-04-23 12:00 | 65.59722 | -37.50035 | 581 ft | 112 kts | 98° |
| 2026-04-23 12:00 | 65.59585 | -37.48175 | 565 ft | 113 kts | 94° |
| 2026-04-23 12:01 | 65.59500 | -37.46256 | 498 ft | 117 kts | 91° |
| 2026-04-23 12:01 | 65.59429 | -37.44317 | 503 ft | 113 kts | 91° |
| 2026-04-23 12:01 | 65.59363 | -37.42483 | 549 ft | 109 kts | 90° |
| 2026-04-23 12:01 | 65.59299 | -37.40686 | 583 ft | 106 kts | 90° |
| 2026-04-23 12:02 | 65.59240 | -37.38936 | 646 ft | 103 kts | 89° |
| 2026-04-23 12:02 | 65.59189 | -37.37206 | 713 ft | 101 kts | 88° |
| 2026-04-23 12:02 | 65.59146 | -37.35519 | 782 ft | 101 kts | 88° |
| 2026-04-23 12:02 | 65.59112 | -37.33821 | 815 ft | 103 kts | 87° |
| 2026-04-23 12:03 | 65.59085 | -37.32076 | 853 ft | 105 kts | 86° |
| 2026-04-23 12:03 | 65.59054 | -37.30307 | 879 ft | 106 kts | 90° |
| 2026-04-23 12:03 | 65.58957 | -37.28521 | 878 ft | 109 kts | 95° |
| 2026-04-23 12:03 | 65.58811 | -37.26693 | 846 ft | 112 kts | 98° |
| 2026-04-23 12:04 | 65.58629 | -37.24839 | 817 ft | 114 kts | 101° |
| 2026-04-23 12:04 | 65.58415 | -37.22987 | 801 ft | 115 kts | 103° |
| 2026-04-23 12:04 | 65.58173 | -37.21152 | 794 ft | 115 kts | 105° |
| 2026-04-23 12:04 | 65.57925 | -37.19235 | 657 ft | 124 kts | 101° |
| 2026-04-23 12:05 | 65.57991 | -37.17236 | 649 ft | 120 kts | 63° |
| 2026-04-23 12:05 | 65.58517 | -37.15711 | 591 ft | 120 kts | 30° |
| 2026-04-23 12:05 | 65.59260 | -37.14703 | 472 ft | 124 kts | 20° |
| 2026-04-23 12:05 | 65.60018 | -37.14443 | 502 ft | 104 kts | 314° |
| 2026-04-23 12:06 | 65.59906 | -37.15585 | 575 ft | 83 kts | 179° |
| 2026-04-23 12:06 | 65.59346 | -37.15219 | 643 ft | 88 kts | 159° |
| 2026-04-23 12:06 | 65.58112 | -37.14007 | 449 ft | 94 kts | 144° |
| 2026-04-23 12:07 | 65.57945 | -37.12777 | 508 ft | 75 kts | 72° |
| 2026-04-23 12:07 | 65.58061 | -37.11614 | 492 ft | 70 kts | 68° |
| 2026-04-23 12:07 | 65.58123 | -37.10470 | 458 ft | 69 kts | 80° |
| 2026-04-23 12:07 | 65.57851 | -37.09534 | 354 ft | 76 kts | 155° |
| 2026-04-23 12:08 | 65.57428 | -37.09975 | 315 ft | 72 kts | 246° |
| 2026-04-23 12:08 | 65.57402 | -37.10975 | 333 ft | 48 kts | 254° |
| 2026-04-23 12:08 | 65.57383 | -37.11649 | 184 ft | 37 kts | 247° |
| 2026-04-23 12:08 | 65.57354 | -37.12290 | 143 ft | 40 kts | 245° |
| 2026-04-23 12:09 | 65.57329 | -37.12972 | 161 ft | 38 kts | 247° |
| 2026-04-23 12:09 | 65.57312 | -37.13405 | 147 ft | 14 kts | 295° |
| 2026-04-23 12:09 | 65.57314 | -37.13445 | 120 ft | 0 kts | 302° |
| 2026-04-23 12:09 | 65.57317 | -37.13453 | 121 ft | 2 kts | 310° |
| 2026-04-23 12:10 | 65.57337 | -37.13474 | 121 ft | 4 kts | 352° |
| 2026-04-23 12:10 | 65.57391 | -37.13490 | 122 ft | 10 kts | 352° |
| 2026-04-23 12:10 | 65.57431 | -37.13444 | 123 ft | 0 kts | 76° |
| 2026-04-23 12:11 | 65.57432 | -37.13439 | 123 ft | 0 kts | 75° |